Observation data for Kent I10-I20 Split on 11/15/2019      Previous  Date       Current Mesonet Observations  Soil Data  Daily Summary Page  Observations in Plain Language
KKE1 150600Z 13005KT 04/M02 A3044 RMK A01 T00361023  RH  065%=      5-min Rain = 0
KKE1 150601Z 13004KT 04/M02 A3044 RMK A01 T00361023  RH  065%=      5-min Rain = 0
KKE1 150602Z 12005KT 04/M02 A3044 RMK A01 T00361023  RH  065%=      5-min Rain = 0
KKE1 150603Z 12005KT 04/M02 A3044 RMK A01 T00371023  RH  065%=      5-min Rain = 0
KKE1 150604Z 12005KT 04/M02 A3044 RMK A01 T00371023  RH  065%=      5-min Rain = 0
KKE1 150605Z 12004KT 04/M02 A3044 RMK A01 T00381023  RH  065%=      5-min Rain = 0
KKE1 150606Z 12005KT 04/M02 A3044 RMK A01 T00381023  RH  064%=      5-min Rain = 0
KKE1 150607Z 12005KT 04/M02 A3044 RMK A01 T00381023  RH  064%=      5-min Rain = 0
KKE1 150608Z 12005KT 04/M02 A3044 RMK A01 T00381023  RH  064%=      5-min Rain = 0
KKE1 150609Z 12005KT 04/M02 A3044 RMK A01 T00371023  RH  065%=      5-min Rain = 0
KKE1 150610Z 12005KT 04/M02 A3044 RMK A01 T00371023  RH  065%=      5-min Rain = 0
KKE1 150611Z 12004KT 04/M02 A3044 RMK A01 T00371023  RH  065%=      5-min Rain = 0
KKE1 150612Z 12005KT 04/M02 A3044 RMK A01 T00371023  RH  065%=      5-min Rain = 0
KKE1 150613Z 12005KT 04/M02 A3044 RMK A01 T00371023  RH  065%=      5-min Rain = 0
KKE1 150614Z 12005KT 04/M02 A3044 RMK A01 T00361023  RH  065%=      5-min Rain = 0
KKE1 150615Z 12005KT 04/M02 A3044 RMK A01 T00361023  RH  065%=      5-min Rain = 0
KKE1 150616Z 12005KT 04/M02 A3044 RMK A01 T00361024  RH  065%=      5-min Rain = 0
KKE1 150617Z 12005KT 04/M02 A3044 RMK A01 T00361024  RH  065%=      5-min Rain = 0
KKE1 150618Z 11005KT 04/M02 A3044 RMK A01 T00351024  RH  065%=      5-min Rain = 0
KKE1 150619Z 12005KT 04/M02 A3044 RMK A01 T00351023  RH  065%=      5-min Rain = 0
KKE1 150620Z 12005KT 04/M02 A3044 RMK A01 T00351023  RH  065%=      5-min Rain = 0
KKE1 150621Z 12005KT 04/M02 A3044 RMK A01 T00351024  RH  066%=      5-min Rain = 0
KKE1 150622Z 12004KT 03/M02 A3044 RMK A01 T00341024  RH  066%=      5-min Rain = 0
KKE1 150623Z 13004KT 03/M02 A3044 RMK A01 T00331024  RH  066%=      5-min Rain = 0
KKE1 150624Z 13004KT 03/M02 A3044 RMK A01 T00331024  RH  066%=      5-min Rain = 0
KKE1 150625Z 13004KT 03/M02 A3044 RMK A01 T00331023  RH  066%=      5-min Rain = 0
KKE1 150626Z 13004KT 03/M02 A3044 RMK A01 T00331023  RH  067%=      5-min Rain = 0
KKE1 150627Z 13004KT 03/M02 A3044 RMK A01 T00321024  RH  067%=      5-min Rain = 0
KKE1 150628Z 13005KT 03/M02 A3044 RMK A01 T00321024  RH  067%=      5-min Rain = 0
KKE1 150629Z 13004KT 03/M02 A3044 RMK A01 T00321024  RH  067%=      5-min Rain = 0
KKE1 150630Z 12004KT 03/M02 A3044 RMK A01 T00321024  RH  067%=      5-min Rain = 0
KKE1 150631Z 12003KT 03/M02 A3044 RMK A01 T00321024  RH  067%=      5-min Rain = 0
KKE1 150632Z 11004KT 03/M02 A3044 RMK A01 T00321024  RH  067%=      5-min Rain = 0
KKE1 150633Z 12003KT 03/M02 A3044 RMK A01 T00321024  RH  067%=      5-min Rain = 0
KKE1 150634Z 11004KT 03/M02 A3044 RMK A01 T00321024  RH  067%=      5-min Rain = 0
KKE1 150635Z 11004KT 03/M02 A3044 RMK A01 T00321024  RH  067%=      5-min Rain = 0
KKE1 150636Z 11004KT 03/M03 A3044 RMK A01 T00301025  RH  067%=      5-min Rain = 0
KKE1 150637Z 11004KT 03/M03 A3044 RMK A01 T00291025  RH  068%=      5-min Rain = 0
KKE1 150638Z 12004KT 03/M03 A3044 RMK A01 T00281025  RH  068%=      5-min Rain = 0
KKE1 150639Z 12004KT 03/M03 A3044 RMK A01 T00281025  RH  068%=      5-min Rain = 0
KKE1 150640Z 11004KT 03/M03 A3044 RMK A01 T00271025  RH  068%=      5-min Rain = 0
KKE1 150641Z 11004KT 03/M03 A3044 RMK A01 T00281025  RH  068%=      5-min Rain = 0
KKE1 150642Z 11004KT 03/M03 A3044 RMK A01 T00281025  RH  068%=      5-min Rain = 0
KKE1 150643Z 11005KT 03/M03 A3044 RMK A01 T00271025  RH  069%=      5-min Rain = 0
KKE1 150644Z 11004KT 03/M03 A3044 RMK A01 T00261025  RH  069%=      5-min Rain = 0
KKE1 150645Z 12004KT 03/M03 A3044 RMK A01 T00251025  RH  069%=      5-min Rain = 0
KKE1 150646Z 12004KT 03/M03 A3044 RMK A01 T00261025  RH  069%=      5-min Rain = 0
KKE1 150647Z 12005KT 03/M03 A3044 RMK A01 T00261025  RH  069%=      5-min Rain = 0
KKE1 150648Z 12004KT 03/M03 A3044 RMK A01 T00261025  RH  069%=      5-min Rain = 0
KKE1 150649Z 13004KT 03/M03 A3044 RMK A01 T00271025  RH  069%=      5-min Rain = 0
KKE1 150650Z 13004KT 03/M02 A3044 RMK A01 T00271024  RH  069%=      5-min Rain = 0
KKE1 150651Z 13004KT 03/M02 A3044 RMK A01 T00281024  RH  068%=      5-min Rain = 0
KKE1 150652Z 13004KT 03/M02 A3044 RMK A01 T00291024  RH  068%=      5-min Rain = 0
KKE1 150653Z 13004KT 03/M02 A3044 RMK A01 T00291024  RH  068%=      5-min Rain = 0
KKE1 150654Z 12004KT 03/M02 A3044 RMK A01 T00291024  RH  068%=      5-min Rain = 0
KKE1 150655Z 13004KT 03/M03 A3044 RMK A01 T00281025  RH  068%=      5-min Rain = 0
KKE1 150656Z 13004KT 03/M03 A3043 RMK A01 T00271025  RH  068%=      5-min Rain = 0
KKE1 150657Z 12005KT 03/M03 A3043 RMK A01 T00281025  RH  068%=      5-min Rain = 0
KKE1 150658Z 12005KT 03/M03 A3043 RMK A01 T00291025  RH  068%=      5-min Rain = 0
KKE1 150659Z 12005KT 03/M03 A3043 RMK A01 T00291025  RH  068%=      5-min Rain = 0
KKE1 150700Z 12005KT 03/M03 A3043 RMK A01 T00291025  RH  068%=      5-min Rain = 0
KKE1 150701Z 12005KT 03/M03 A3043 RMK A01 T00291025  RH  068%=      5-min Rain = 0
KKE1 150702Z 12005KT 03/M03 A3043 RMK A01 T00291025  RH  068%=      5-min Rain = 0
KKE1 150703Z 12005KT 03/M03 A3043 RMK A01 T00281025  RH  068%=      5-min Rain = 0
KKE1 150704Z 12005KT 03/M03 A3043 RMK A01 T00291025  RH  068%=      5-min Rain = 0
KKE1 150705Z 12005KT 03/M03 A3043 RMK A01 T00301025  RH  067%=      5-min Rain = 0
KKE1 150706Z 12004KT 03/M03 A3043 RMK A01 T00301025  RH  067%=      5-min Rain = 0
KKE1 150707Z 13004KT 03/M03 A3043 RMK A01 T00291025  RH  068%=      5-min Rain = 0
KKE1 150708Z 13004KT 03/M03 A3043 RMK A01 T00281025  RH  068%=      5-min Rain = 0
KKE1 150709Z 14004KT 03/M03 A3044 RMK A01 T00271025  RH  069%=      5-min Rain = 0
KKE1 150710Z 14005KT 03/M03 A3044 RMK A01 T00271025  RH  069%=      5-min Rain = 0
KKE1 150711Z 13004KT 03/M03 A3044 RMK A01 T00281025  RH  068%=      5-min Rain = 0
KKE1 150712Z 13004KT 03/M03 A3044 RMK A01 T00281025  RH  068%=      5-min Rain = 0
KKE1 150713Z 14004KT 03/M03 A3044 RMK A01 T00281025  RH  068%=      5-min Rain = 0
KKE1 150714Z 14004KT 03/M03 A3044 RMK A01 T00271025  RH  068%=      5-min Rain = 0
KKE1 150715Z 15003KT 03/M03 A3044 RMK A01 T00261026  RH  068%=      5-min Rain = 0
KKE1 150716Z 15002KT 03/M03 A3044 RMK A01 T00251026  RH  069%=      5-min Rain = 0
KKE1 150717Z 17002KT 02/M03 A3044 RMK A01 T00231028  RH  069%=      5-min Rain = 0
KKE1 150718Z 18001KT 02/M03 A3044 RMK A01 T00211028  RH  070%=      5-min Rain = 0
KKE1 150719Z 18002KT 02/M03 A3044 RMK A01 T00191028  RH  071%=      5-min Rain = 0
KKE1 150720Z 18002KT 02/M03 A3043 RMK A01 T00181027  RH  072%=      5-min Rain = 0
KKE1 150721Z 18002KT 02/M03 A3043 RMK A01 T00181027  RH  072%=      5-min Rain = 0
KKE1 150722Z 17002KT 02/M03 A3043 RMK A01 T00181027  RH  072%=      5-min Rain = 0
KKE1 150723Z 17003KT 02/M03 A3043 RMK A01 T00181027  RH  072%=      5-min Rain = 0
KKE1 150724Z 15003KT 02/M03 A3043 RMK A01 T00191027  RH  072%=      5-min Rain = 0
KKE1 150725Z 16003KT 02/M03 A3043 RMK A01 T00201027  RH  071%=      5-min Rain = 0
KKE1 150726Z 16002KT 02/M03 A3043 RMK A01 T00201027  RH  071%=      5-min Rain = 0
KKE1 150727Z 16003KT 02/M03 A3043 RMK A01 T00201027  RH  071%=      5-min Rain = 0
KKE1 150728Z 16003KT 02/M03 A3043 RMK A01 T00191027  RH  071%=      5-min Rain = 0
KKE1 150729Z 16003KT 02/M03 A3043 RMK A01 T00191027  RH  072%=      5-min Rain = 0
KKE1 150730Z 16002KT 02/M03 A3043 RMK A01 T00181028  RH  072%=      5-min Rain = 0
KKE1 150731Z 16001KT 02/M03 A3043 RMK A01 T00171028  RH  072%=      5-min Rain = 0
KKE1 150732Z 16002KT 02/M03 A3043 RMK A01 T00171028  RH  072%=      5-min Rain = 0
KKE1 150733Z 15002KT 02/M03 A3043 RMK A01 T00161028  RH  073%=      5-min Rain = 0
KKE1 150734Z 15003KT 02/M03 A3043 RMK A01 T00161028  RH  073%=      5-min Rain = 0
KKE1 150735Z 15002KT 02/M03 A3043 RMK A01 T00151028  RH  073%=      5-min Rain = 0
KKE1 150736Z 16003KT 02/M03 A3043 RMK A01 T00151028  RH  073%=      5-min Rain = 0
KKE1 150737Z 16003KT 02/M03 A3043 RMK A01 T00151027  RH  073%=      5-min Rain = 0
KKE1 150738Z 16003KT 02/M03 A3043 RMK A01 T00171026  RH  073%=      5-min Rain = 0
KKE1 150739Z 16002KT 02/M03 A3043 RMK A01 T00181026  RH  072%=      5-min Rain = 0
KKE1 150740Z 17002KT 02/M03 A3043 RMK A01 T00191026  RH  072%=      5-min Rain = 0
KKE1 150741Z 18003KT 02/M03 A3043 RMK A01 T00191027  RH  072%=      5-min Rain = 0
KKE1 150742Z 18003KT 02/M03 A3043 RMK A01 T00191027  RH  071%=      5-min Rain = 0
KKE1 150743Z 18003KT 02/M03 A3043 RMK A01 T00201026  RH  071%=      5-min Rain = 0
KKE1 150744Z 18002KT 02/M03 A3043 RMK A01 T00201027  RH  071%=      5-min Rain = 0
KKE1 150745Z 19002KT 02/M03 A3043 RMK A01 T00191027  RH  071%=      5-min Rain = 0
KKE1 150746Z 20002KT 02/M03 A3043 RMK A01 T00191027  RH  072%=      5-min Rain = 0
KKE1 150747Z 19001KT 02/M03 A3043 RMK A01 T00181028  RH  072%=      5-min Rain = 0
KKE1 150748Z 19002KT 02/M03 A3043 RMK A01 T00171029  RH  072%=      5-min Rain = 0
KKE1 150749Z 19002KT 02/M03 A3043 RMK A01 T00151029  RH  072%=      5-min Rain = 0
KKE1 150750Z 18002KT 02/M03 A3043 RMK A01 T00151028  RH  073%=      5-min Rain = 0
KKE1 150751Z 20002KT 02/M03 A3043 RMK A01 T00151028  RH  073%=      5-min Rain = 0
KKE1 150752Z 18002KT 02/M03 A3043 RMK A01 T00151028  RH  073%=      5-min Rain = 0
KKE1 150753Z 17002KT 02/M03 A3043 RMK A01 T00151028  RH  073%=      5-min Rain = 0
KKE1 150754Z 16003KT 01/M03 A3043 RMK A01 T00141028  RH  073%=      5-min Rain = 0
KKE1 150755Z 14003KT 01/M03 A3043 RMK A01 T00141028  RH  074%=      5-min Rain = 0
KKE1 150756Z 15003KT 01/M03 A3043 RMK A01 T00141028  RH  074%=      5-min Rain = 0
KKE1 150757Z 15003KT 01/M03 A3043 RMK A01 T00131028  RH  074%=      5-min Rain = 0
KKE1 150758Z 16003KT 01/M03 A3043 RMK A01 T00121029  RH  074%=      5-min Rain = 0
KKE1 150759Z 15003KT 01/M03 A3043 RMK A01 T00101029  RH  075%=      5-min Rain = 0
KKE1 150800Z 15004KT 01/M03 A3043 RMK A01 T00101029  RH  075%=      5-min Rain = 0
KKE1 150801Z 15003KT 01/M03 A3043 RMK A01 T00091029  RH  076%=      5-min Rain = 0
KKE1 150802Z 15004KT 01/M03 A3043 RMK A01 T00101028  RH  076%=      5-min Rain = 0
KKE1 150803Z 15003KT 01/M03 A3043 RMK A01 T00101027  RH  076%=      5-min Rain = 0
KKE1 150804Z 14003KT 01/M03 A3043 RMK A01 T00111027  RH  075%=      5-min Rain = 0
KKE1 150805Z 14004KT 01/M03 A3042 RMK A01 T00111027  RH  075%=      5-min Rain = 0
KKE1 150806Z 13005KT 01/M03 A3042 RMK A01 T00121027  RH  075%=      5-min Rain = 0
KKE1 150807Z 13005KT 01/M03 A3042 RMK A01 T00111027  RH  075%=      5-min Rain = 0
KKE1 150808Z 13005KT 01/M03 A3042 RMK A01 T00121027  RH  075%=      5-min Rain = 0
KKE1 150809Z 13005KT 01/M03 A3042 RMK A01 T00121027  RH  075%=      5-min Rain = 0
KKE1 150810Z 13005KT 01/M03 A3042 RMK A01 T00131026  RH  075%=      5-min Rain = 0
KKE1 150811Z 13005KT 01/M03 A3042 RMK A01 T00141026  RH  075%=      5-min Rain = 0
KKE1 150812Z 13005KT 02/M03 A3042 RMK A01 T00151026  RH  074%=      5-min Rain = 0
KKE1 150813Z 13005KT 02/M03 A3042 RMK A01 T00161025  RH  074%=      5-min Rain = 0
KKE1 150814Z 13005KT 02/M03 A3042 RMK A01 T00181025  RH  073%=      5-min Rain = 0
KKE1 150815Z 13005KT 02/M03 A3042 RMK A01 T00181026  RH  073%=      5-min Rain = 0
KKE1 150816Z 13005KT 02/M03 A3042 RMK A01 T00181026  RH  073%=      5-min Rain = 0
KKE1 150817Z 13005KT 02/M03 A3042 RMK A01 T00181026  RH  073%=      5-min Rain = 0
KKE1 150818Z 13005KT 02/M03 A3042 RMK A01 T00181026  RH  073%=      5-min Rain = 0
KKE1 150819Z 13004KT 02/M03 A3042 RMK A01 T00181026  RH  073%=      5-min Rain = 0
KKE1 150820Z 13004KT 02/M03 A3042 RMK A01 T00191025  RH  073%=      5-min Rain = 0
KKE1 150821Z 13004KT 02/M02 A3042 RMK A01 T00201024  RH  072%=      5-min Rain = 0
KKE1 150822Z 12004KT 02/M02 A3042 RMK A01 T00211024  RH  072%=      5-min Rain = 0
KKE1 150823Z 13003KT 02/M03 A3042 RMK A01 T00211025  RH  072%=      5-min Rain = 0
KKE1 150824Z 13003KT 02/M03 A3041 RMK A01 T00211025  RH  072%=      5-min Rain = 0
KKE1 150825Z 13003KT 02/M03 A3041 RMK A01 T00201025  RH  072%=      5-min Rain = 0
KKE1 150826Z 14002KT 02/M03 A3041 RMK A01 T00191026  RH  072%=      5-min Rain = 0
KKE1 150827Z 13003KT 02/M03 A3041 RMK A01 T00181026  RH  073%=      5-min Rain = 0
KKE1 150828Z 13003KT 02/M03 A3041 RMK A01 T00171026  RH  073%=      5-min Rain = 0
KKE1 150829Z 13004KT 02/M03 A3041 RMK A01 T00161026  RH  074%=      5-min Rain = 0
KKE1 150830Z 13004KT 02/M03 A3041 RMK A01 T00151026  RH  074%=      5-min Rain = 0
KKE1 150831Z 13003KT 02/M03 A3041 RMK A01 T00151026  RH  074%=      5-min Rain = 0
KKE1 150832Z 14003KT 02/M03 A3041 RMK A01 T00151026  RH  074%=      5-min Rain = 0
KKE1 150833Z 13003KT 02/M03 A3041 RMK A01 T00151026  RH  074%=      5-min Rain = 0
KKE1 150834Z 13002KT 01/M03 A3041 RMK A01 T00141027  RH  074%=      5-min Rain = 0
KKE1 150835Z 12003KT 01/M03 A3041 RMK A01 T00141026  RH  074%=      5-min Rain = 0
KKE1 150836Z 12002KT 01/M03 A3041 RMK A01 T00141026  RH  074%=      5-min Rain = 0
KKE1 150837Z 11002KT 01/M03 A3041 RMK A01 T00141027  RH  074%=      5-min Rain = 0
KKE1 150838Z 11002KT 02/M03 A3041 RMK A01 T00151025  RH  075%=      5-min Rain = 0
KKE1 150839Z 12002KT 02/M03 A3041 RMK A01 T00151025  RH  075%=      5-min Rain = 0
KKE1 150840Z 11002KT 02/M03 A3041 RMK A01 T00161025  RH  074%=      5-min Rain = 0
KKE1 150841Z 11002KT 02/M03 A3041 RMK A01 T00161025  RH  074%=      5-min Rain = 0
KKE1 150842Z 12001KT 02/M03 A3041 RMK A01 T00161025  RH  074%=      5-min Rain = 0
KKE1 150843Z 12001KT 02/M03 A3041 RMK A01 T00151025  RH  075%=      5-min Rain = 0
KKE1 150844Z 13001KT 02/M03 A3041 RMK A01 T00151025  RH  075%=      5-min Rain = 0
KKE1 150845Z 14001KT 01/M03 A3041 RMK A01 T00141026  RH  075%=      5-min Rain = 0
KKE1 150846Z 14001KT 01/M03 A3041 RMK A01 T00131028  RH  074%=      5-min Rain = 0
KKE1 150847Z 15002KT 01/M03 A3041 RMK A01 T00111032  RH  073%=      5-min Rain = 0
KKE1 150848Z 15001KT 01/M03 A3041 RMK A01 T00091031  RH  075%=      5-min Rain = 0
KKE1 150849Z 15001KT 01/M03 A3041 RMK A01 T00071030  RH  076%=      5-min Rain = 0
KKE1 150850Z 15001KT 01/M03 A3041 RMK A01 T00061032  RH  076%=      5-min Rain = 0
KKE1 150851Z 15001KT 00/M03 A3041 RMK A01 T00041032  RH  076%=      5-min Rain = 0
KKE1 150852Z 15000KT 00/M03 A3041 RMK A01 T00031033  RH  077%=      5-min Rain = 0
KKE1 150853Z 00000KT 00/M03 A3041 RMK A01 T00021033  RH  077%=      5-min Rain = 0
KKE1 150854Z 00000KT 00/M03 A3041 RMK A01 T00011033  RH  078%=      5-min Rain = 0
KKE1 150855Z 00000KT 00/M03 A3041 RMK A01 T00011032  RH  079%=      5-min Rain = 0
KKE1 150856Z 00000KT 00/03 A3041 RMK A01 T00000-32  RH  079%=      5-min Rain = 0
KKE1 150857Z 00000KT 00/03 A3041 RMK A01 T00000-31  RH  079%=      5-min Rain = 0
KKE1 150858Z 00000KT 00/03 A3041 RMK A01 T00000-31  RH  080%=      5-min Rain = 0
KKE1 150859Z 00000KT 00/M03 A3041 RMK A01 T00011030  RH  080%=      5-min Rain = 0
KKE1 150900Z 00000KT 00/M03 A3041 RMK A01 T00021029  RH  080%=      5-min Rain = 0
KKE1 150901Z 00000KT 00/M03 A304 RMK A01 T00041028  RH  079%=      5-min Rain = 0
KKE1 150902Z 00000KT 01/M03 A304 RMK A01 T00051028  RH  079%=      5-min Rain = 0
KKE1 150903Z 00000KT 01/M03 A304 RMK A01 T00071027  RH  078%=      5-min Rain = 0
KKE1 150904Z 00000KT 01/M03 A304 RMK A01 T00081028  RH  077%=      5-min Rain = 0
KKE1 150905Z 15001KT 01/M03 A304 RMK A01 T00091028  RH  077%=      5-min Rain = 0
KKE1 150906Z 15000KT 01/M03 A304 RMK A01 T00091028  RH  076%=      5-min Rain = 0
KKE1 150907Z 15000KT 01/M03 A304 RMK A01 T00091028  RH  076%=      5-min Rain = 0
KKE1 150908Z 15001KT 01/M03 A304 RMK A01 T00101028  RH  076%=      5-min Rain = 0
KKE1 150909Z 15000KT 01/M03 A304 RMK A01 T00091031  RH  075%=      5-min Rain = 0
KKE1 150910Z 00000KT 01/M03 A304 RMK A01 T00061033  RH  075%=      5-min Rain = 0
KKE1 150911Z 15000KT 00/M03 A304 RMK A01 T00041034  RH  076%=      5-min Rain = 0
KKE1 150912Z 00000KT 00/M03 A304 RMK A01 T00021033  RH  077%=      5-min Rain = 0
KKE1 150913Z 15000KT 00/M03 A304 RMK A01 T00011032  RH  078%=      5-min Rain = 0
KKE1 150914Z 15000KT 00/M03 A304 RMK A01 T00021031  RH  079%=      5-min Rain = 0
KKE1 150915Z 00000KT 00/M03 A304 RMK A01 T00021030  RH  079%=      5-min Rain = 0
KKE1 150916Z 00000KT 00/M03 A304 RMK A01 T00031029  RH  079%=      5-min Rain = 0
KKE1 150917Z 00000KT 00/M03 A304 RMK A01 T00031029  RH  079%=      5-min Rain = 0
KKE1 150918Z 00000KT 00/M03 A304 RMK A01 T00031030  RH  079%=      5-min Rain = 0
KKE1 150919Z 00000KT 00/M03 A304 RMK A01 T00031029  RH  079%=      5-min Rain = 0
KKE1 150920Z 10000KT 00/M03 A304 RMK A01 T00041029  RH  079%=      5-min Rain = 0
KKE1 150921Z 09001KT 01/M03 A304 RMK A01 T00051028  RH  079%=      5-min Rain = 0
KKE1 150922Z 10002KT 01/M03 A304 RMK A01 T00061027  RH  078%=      5-min Rain = 0
KKE1 150923Z 10002KT 01/M03 A304 RMK A01 T00071027  RH  078%=      5-min Rain = 0
KKE1 150924Z 10002KT 01/M03 A304 RMK A01 T00091026  RH  077%=      5-min Rain = 0
KKE1 150925Z 10003KT 01/M03 A304 RMK A01 T00111025  RH  077%=      5-min Rain = 0
KKE1 150926Z 10003KT 01/M03 A304 RMK A01 T00131025  RH  076%=      5-min Rain = 0
KKE1 150927Z 10004KT 01/M03 A3039 RMK A01 T00141025  RH  075%=      5-min Rain = 0
KKE1 150928Z 10004KT 02/M03 A3039 RMK A01 T00151025  RH  074%=      5-min Rain = 0
KKE1 150929Z 10004KT 02/M03 A3039 RMK A01 T00161025  RH  074%=      5-min Rain = 0
KKE1 150930Z 10003KT 02/M03 A3039 RMK A01 T00171026  RH  074%=      5-min Rain = 0
KKE1 150931Z 10004KT 02/M03 A3039 RMK A01 T00171026  RH  073%=      5-min Rain = 0
KKE1 150932Z 10004KT 02/M03 A3039 RMK A01 T00181026  RH  073%=      5-min Rain = 0
KKE1 150933Z 10004KT 02/M03 A3039 RMK A01 T00181026  RH  073%=      5-min Rain = 0
KKE1 150934Z 10004KT 02/M03 A3039 RMK A01 T00181027  RH  072%=      5-min Rain = 0
KKE1 150935Z 10003KT 02/M03 A3039 RMK A01 T00171027  RH  073%=      5-min Rain = 0
KKE1 150936Z 10004KT 02/M03 A3039 RMK A01 T00171027  RH  073%=      5-min Rain = 0
KKE1 150937Z 10004KT 02/M03 A3039 RMK A01 T00171027  RH  073%=      5-min Rain = 0
KKE1 150938Z 10004KT 02/M03 A3039 RMK A01 T00171027  RH  073%=      5-min Rain = 0
KKE1 150939Z 10003KT 02/M03 A3039 RMK A01 T00161027  RH  073%=      5-min Rain = 0
KKE1 150940Z 10003KT 02/M03 A3039 RMK A01 T00161027  RH  073%=      5-min Rain = 0
KKE1 150941Z 10004KT 02/M03 A3039 RMK A01 T00181026  RH  073%=      5-min Rain = 0
KKE1 150942Z 10004KT 02/M03 A3039 RMK A01 T00191026  RH  072%=      5-min Rain = 0
KKE1 150943Z 10003KT 02/M03 A3039 RMK A01 T00201026  RH  072%=      5-min Rain = 0
KKE1 150944Z 10003KT 02/M03 A3039 RMK A01 T00201026  RH  072%=      5-min Rain = 0
KKE1 150945Z 10003KT 02/M03 A3039 RMK A01 T00201026  RH  071%=      5-min Rain = 0
KKE1 150946Z 10003KT 02/M03 A3039 RMK A01 T00201026  RH  071%=      5-min Rain = 0
KKE1 150947Z 10003KT 02/M03 A3039 RMK A01 T00201026  RH  071%=      5-min Rain = 0
KKE1 150948Z 11002KT 02/M03 A3039 RMK A01 T00191027  RH  072%=      5-min Rain = 0
KKE1 150949Z 13002KT 02/M03 A3039 RMK A01 T00181029  RH  071%=      5-min Rain = 0
KKE1 150950Z 14002KT 02/M03 A3039 RMK A01 T00151031  RH  071%=      5-min Rain = 0
KKE1 150951Z 14001KT 01/M03 A3039 RMK A01 T00111034  RH  072%=      5-min Rain = 0
KKE1 150952Z 15000KT 01/M04 A3039 RMK A01 T00071037  RH  073%=      5-min Rain = 0
KKE1 150953Z 00000KT 00/M04 A3039 RMK A01 T00031037  RH  074%=      5-min Rain = 0
KKE1 150954Z 00000KT 00/04 A3039 RMK A01 T00000-37  RH  076%=      5-min Rain = 0
KKE1 150955Z 00000KT M00/M03 A3039 RMK A01 T10011034  RH  078%=      5-min Rain = 0
KKE1 150956Z 00000KT M00/M03 A3039 RMK A01 T10011032  RH  079%=      5-min Rain = 0
KKE1 150957Z 00000KT 00/03 A3039 RMK A01 T00000-32  RH  079%=      5-min Rain = 0
KKE1 150958Z 00000KT 00/03 A3039 RMK A01 T00-00-32  RH  079%=      5-min Rain = 0
KKE1 150959Z 00000KT 00/03 A3039 RMK A01 T00-00-31  RH  080%=      5-min Rain = 0
KKE1 151000Z 15000KT 00/M03 A3039 RMK A01 T00011030  RH  080%=      5-min Rain = 0
KKE1 151001Z 15001KT 00/M03 A3039 RMK A01 T00021031  RH  079%=      5-min Rain = 0
KKE1 151002Z 17001KT 00/M03 A3039 RMK A01 T00011031  RH  079%=      5-min Rain = 0
KKE1 151003Z 18001KT 00/M03 A3039 RMK A01 T00021030  RH  079%=      5-min Rain = 0
KKE1 151004Z 18001KT 00/M03 A3039 RMK A01 T00021031  RH  078%=      5-min Rain = 0
KKE1 151005Z 17001KT 00/M03 A3039 RMK A01 T00031030  RH  079%=      5-min Rain = 0
KKE1 151006Z 17001KT 00/M03 A3039 RMK A01 T00041029  RH  079%=      5-min Rain = 0
KKE1 151007Z 16001KT 00/M03 A3039 RMK A01 T00031030  RH  078%=      5-min Rain = 0
KKE1 151008Z 15002KT 00/M03 A3039 RMK A01 T00031031  RH  078%=      5-min Rain = 0
KKE1 151009Z 14002KT 00/M03 A3039 RMK A01 T00021031  RH  079%=      5-min Rain = 0
KKE1 151010Z 14002KT 00/M03 A3039 RMK A01 T00011031  RH  079%=      5-min Rain = 0
KKE1 151011Z 13002KT 00/M03 A3039 RMK A01 T00011030  RH  079%=      5-min Rain = 0
KKE1 151012Z 12001KT 00/M03 A3039 RMK A01 T00011030  RH  079%=      5-min Rain = 0
KKE1 151013Z 13001KT 00/M03 A3039 RMK A01 T00021030  RH  079%=      5-min Rain = 0
KKE1 151014Z 13000KT 00/M03 A3039 RMK A01 T00031029  RH  079%=      5-min Rain = 0
KKE1 151015Z 15001KT 00/M03 A3039 RMK A01 T00031031  RH  078%=      5-min Rain = 0
KKE1 151016Z 18002KT 00/M03 A3039 RMK A01 T00021031  RH  078%=      5-min Rain = 0
KKE1 151017Z 18001KT 00/M03 A3039 RMK A01 T00021031  RH  078%=      5-min Rain = 0
KKE1 151018Z 18001KT 00/M03 A3039 RMK A01 T00021031  RH  078%=      5-min Rain = 0
KKE1 151019Z 18001KT 00/M03 A3039 RMK A01 T00021031  RH  078%=      5-min Rain = 0
KKE1 151020Z 18001KT 00/M03 A3039 RMK A01 T00021032  RH  078%=      5-min Rain = 0
KKE1 151021Z 18000KT 00/M03 A3039 RMK A01 T00021032  RH  078%=      5-min Rain = 0
KKE1 151022Z 00000KT 00/M03 A3039 RMK A01 T00021032  RH  078%=      5-min Rain = 0
KKE1 151023Z 18000KT 00/M03 A3039 RMK A01 T00011032  RH  078%=      5-min Rain = 0
KKE1 151024Z 18001KT 00/M03 A3039 RMK A01 T00011031  RH  079%=      5-min Rain = 0
KKE1 151025Z 18001KT 00/M03 A3039 RMK A01 T00011031  RH  079%=      5-min Rain = 0
KKE1 151026Z 18001KT 00/M03 A3039 RMK A01 T00011031  RH  079%=      5-min Rain = 0
KKE1 151027Z 18000KT 00/M03 A3039 RMK A01 T00011032  RH  079%=      5-min Rain = 0
KKE1 151028Z 00000KT 00/M03 A3039 RMK A01 T00011032  RH  079%=      5-min Rain = 0
KKE1 151029Z 00000KT 00/M03 A3039 RMK A01 T00011031  RH  079%=      5-min Rain = 0
KKE1 151030Z 18000KT 00/M03 A3039 RMK A01 T00011031  RH  079%=      5-min Rain = 0
KKE1 151031Z 18001KT 00/M03 A3039 RMK A01 T00011030  RH  079%=      5-min Rain = 0
KKE1 151032Z 19001KT 00/M03 A3039 RMK A01 T00011031  RH  079%=      5-min Rain = 0
KKE1 151033Z 20001KT 00/M03 A3039 RMK A01 T00011032  RH  079%=      5-min Rain = 0
KKE1 151034Z 22002KT M00/M04 A3039 RMK A01 T10041040  RH  077%=      5-min Rain = 0
KKE1 151035Z 22002KT M01/M04 A3039 RMK A01 T10091042  RH  078%=      5-min Rain = 0
KKE1 151036Z 25002KT M01/M04 A3039 RMK A01 T10111040  RH  081%=      5-min Rain = 0
KKE1 151037Z 26002KT M01/M04 A3039 RMK A01 T10111039  RH  081%=      5-min Rain = 0
KKE1 151038Z 26002KT M01/M04 A3039 RMK A01 T10121038  RH  082%=      5-min Rain = 0
KKE1 151039Z 26001KT M01/M04 A3039 RMK A01 T10121037  RH  083%=      5-min Rain = 0
KKE1 151040Z 26001KT M01/M04 A3039 RMK A01 T10111035  RH  083%=      5-min Rain = 0
KKE1 151041Z 26001KT M01/M03 A3039 RMK A01 T10081033  RH  083%=      5-min Rain = 0
KKE1 151042Z 26001KT M01/M03 A3039 RMK A01 T10061032  RH  083%=      5-min Rain = 0
KKE1 151043Z 26001KT M00/M03 A3039 RMK A01 T10041031  RH  082%=      5-min Rain = 0
KKE1 151044Z 26001KT M00/M03 A3039 RMK A01 T10021031  RH  081%=      5-min Rain = 0
KKE1 151045Z 26001KT 00/03 A3039 RMK A01 T00-00-30  RH  080%=      5-min Rain = 0
KKE1 151046Z 25002KT 00/03 A3039 RMK A01 T00-00-31  RH  080%=      5-min Rain = 0
KKE1 151047Z 24002KT 00/03 A3039 RMK A01 T00-00-31  RH  080%=      5-min Rain = 0
KKE1 151048Z 24001KT 00/03 A3039 RMK A01 T00-00-31  RH  080%=      5-min Rain = 0
KKE1 151049Z 24002KT M00/M03 A3039 RMK A01 T10021034  RH  079%=      5-min Rain = 0
KKE1 151050Z 23002KT M00/M04 A3039 RMK A01 T10041036  RH  079%=      5-min Rain = 0
KKE1 151051Z 23002KT M01/M03 A3039 RMK A01 T10051034  RH  081%=      5-min Rain = 0
KKE1 151052Z 23002KT M00/M03 A3039 RMK A01 T10031032  RH  081%=      5-min Rain = 0
KKE1 151053Z 22002KT M00/M03 A3039 RMK A01 T10021032  RH  080%=      5-min Rain = 0
KKE1 151054Z 21003KT M00/M03 A3039 RMK A01 T10021033  RH  080%=      5-min Rain = 0
KKE1 151055Z 20003KT M00/M03 A3039 RMK A01 T10021033  RH  080%=      5-min Rain = 0
KKE1 151056Z 21003KT M00/M03 A3039 RMK A01 T10021032  RH  080%=      5-min Rain = 0
KKE1 151057Z 21003KT M00/M03 A3039 RMK A01 T10011031  RH  080%=      5-min Rain = 0
KKE1 151058Z 21004KT M00/M03 A3039 RMK A01 T10011031  RH  080%=      5-min Rain = 0
KKE1 151059Z 21004KT 00/03 A3039 RMK A01 T00000-31  RH  079%=      5-min Rain = 0
KKE1 151100Z 21003KT 00/M03 A3039 RMK A01 T00011031  RH  079%=      5-min Rain = 0
KKE1 151101Z 22003KT 00/M03 A3039 RMK A01 T00011031  RH  079%=      5-min Rain = 0
KKE1 151102Z 22003KT 00/03 A3039 RMK A01 T00000-31  RH  079%=      5-min Rain = 0
KKE1 151103Z 22003KT 00/03 A3039 RMK A01 T00000-31  RH  079%=      5-min Rain = 0
KKE1 151104Z 22003KT 00/03 A3039 RMK A01 T00000-31  RH  080%=      5-min Rain = 0
KKE1 151105Z 21003KT 00/03 A3039 RMK A01 T00000-31  RH  080%=      5-min Rain = 0
KKE1 151106Z 21004KT 00/03 A3039 RMK A01 T00-00-32  RH  079%=      5-min Rain = 0
KKE1 151107Z 21004KT M00/M03 A3039 RMK A01 T10011034  RH  079%=      5-min Rain = 0
KKE1 151108Z 21004KT M00/M03 A3039 RMK A01 T10021034  RH  079%=      5-min Rain = 0
KKE1 151109Z 22003KT M00/M03 A3039 RMK A01 T10031033  RH  080%=      5-min Rain = 0
KKE1 151110Z 22003KT M00/M03 A3039 RMK A01 T10031034  RH  080%=      5-min Rain = 0
KKE1 151111Z 21003KT M00/M03 A3039 RMK A01 T10031034  RH  079%=      5-min Rain = 0
KKE1 151112Z 21004KT M00/M03 A3039 RMK A01 T10031034  RH  080%=      5-min Rain = 0
KKE1 151113Z 21004KT M00/M03 A3039 RMK A01 T10031032  RH  081%=      5-min Rain = 0
KKE1 151114Z 21004KT 00/03 A3039 RMK A01 T00-00-30  RH  081%=      5-min Rain = 0
KKE1 151115Z 20003KT 00/M03 A3039 RMK A01 T00011031  RH  079%=      5-min Rain = 0
KKE1 151116Z 20003KT 00/M03 A3039 RMK A01 T00011031  RH  079%=      5-min Rain = 0
KKE1 151117Z 21003KT 00/03 A3039 RMK A01 T00000-32  RH  079%=      5-min Rain = 0
KKE1 151118Z 21003KT 00/M03 A3039 RMK A01 T00011032  RH  079%=      5-min Rain = 0
KKE1 151119Z 21003KT 00/03 A3039 RMK A01 T00000-32  RH  079%=      5-min Rain = 0
KKE1 151120Z 21003KT 00/03 A3039 RMK A01 T00000-32  RH  079%=      5-min Rain = 0
KKE1 151121Z 21004KT 00/03 A3039 RMK A01 T00000-32  RH  079%=      5-min Rain = 0
KKE1 151122Z 22004KT 00/03 A3039 RMK A01 T00000-32  RH  079%=      5-min Rain = 0
KKE1 151123Z 22004KT 00/M03 A3039 RMK A01 T00011031  RH  079%=      5-min Rain = 0
KKE1 151124Z 21004KT 00/M03 A3039 RMK A01 T00021032  RH  078%=      5-min Rain = 0
KKE1 151125Z 21004KT 00/M03 A3039 RMK A01 T00021032  RH  078%=      5-min Rain = 0
KKE1 151126Z 21004KT 00/M03 A3039 RMK A01 T00021033  RH  078%=      5-min Rain = 0
KKE1 151127Z 22003KT 00/M03 A3039 RMK A01 T00011033  RH  078%=      5-min Rain = 0
KKE1 151128Z 22003KT 00/03 A3039 RMK A01 T00-00-33  RH  078%=      5-min Rain = 0
KKE1 151129Z 22003KT M00/M03 A3039 RMK A01 T10011033  RH  079%=      5-min Rain = 0
KKE1 151130Z 21003KT M00/M03 A3039 RMK A01 T10021033  RH  079%=      5-min Rain = 0
KKE1 151131Z 22003KT M00/M03 A3039 RMK A01 T10021033  RH  079%=      5-min Rain = 0
KKE1 151132Z 22003KT M00/M03 A3039 RMK A01 T10021033  RH  080%=      5-min Rain = 0
KKE1 151133Z 22003KT M00/M03 A3039 RMK A01 T10021033  RH  080%=      5-min Rain = 0
KKE1 151134Z 22003KT M00/M03 A3039 RMK A01 T10021033  RH  080%=      5-min Rain = 0
KKE1 151135Z 22003KT M00/M03 A3039 RMK A01 T10021033  RH  080%=      5-min Rain = 0
KKE1 151136Z 23003KT M00/M03 A3039 RMK A01 T10021033  RH  080%=      5-min Rain = 0
KKE1 151137Z 23003KT M00/M03 A3039 RMK A01 T10011032  RH  079%=      5-min Rain = 0
KKE1 151138Z 23002KT 00/03 A3039 RMK A01 T00-00-32  RH  079%=      5-min Rain = 0
KKE1 151139Z 23003KT 00/03 A3039 RMK A01 T00-00-34  RH  078%=      5-min Rain = 0
KKE1 151140Z 23002KT M00/M03 A3039 RMK A01 T10011034  RH  078%=      5-min Rain = 0
KKE1 151141Z 23002KT M00/M04 A3039 RMK A01 T10021035  RH  078%=      5-min Rain = 0
KKE1 151142Z 23002KT M00/M04 A3039 RMK A01 T10021035  RH  079%=      5-min Rain = 0
KKE1 151143Z 22002KT M00/M04 A3039 RMK A01 T10031036  RH  079%=      5-min Rain = 0
KKE1 151144Z 22002KT M00/M04 A3039 RMK A01 T10041036  RH  079%=      5-min Rain = 0
KKE1 151145Z 21003KT M01/M04 A3039 RMK A01 T10051036  RH  080%=      5-min Rain = 0
KKE1 151146Z 21003KT M01/M04 A3039 RMK A01 T10051035  RH  080%=      5-min Rain = 0
KKE1 151147Z 21003KT M01/M04 A3039 RMK A01 T10051035  RH  080%=      5-min Rain = 0
KKE1 151148Z 21003KT M00/M03 A3039 RMK A01 T10041034  RH  080%=      5-min Rain = 0
KKE1 151149Z 21003KT M00/M03 A3039 RMK A01 T10041034  RH  080%=      5-min Rain = 0
KKE1 151150Z 22002KT M00/M03 A3039 RMK A01 T10041034  RH  080%=      5-min Rain = 0
KKE1 151151Z 22002KT M00/M03 A3039 RMK A01 T10041034  RH  080%=      5-min Rain = 0
KKE1 151152Z 22002KT M00/M03 A3039 RMK A01 T10031034  RH  080%=      5-min Rain = 0
KKE1 151153Z 22002KT M00/M03 A3039 RMK A01 T10031034  RH  079%=      5-min Rain = 0
KKE1 151154Z 22002KT M00/M03 A3039 RMK A01 T10031034  RH  080%=      5-min Rain = 0
KKE1 151155Z 21002KT M00/M03 A3039 RMK A01 T10031034  RH  080%=      5-min Rain = 0
KKE1 151156Z 22001KT M00/M03 A3039 RMK A01 T10021034  RH  079%=      5-min Rain = 0
KKE1 151157Z 23002KT M00/M03 A3039 RMK A01 T10021034  RH  079%=      5-min Rain = 0
KKE1 151158Z 24003KT M00/M04 A3039 RMK A01 T10021035  RH  079%=      5-min Rain = 0
KKE1 151159Z 23003KT M00/M04 A3039 RMK A01 T10031036  RH  079%=      5-min Rain = 0
KKE1 151200Z 23003KT M01/M04 A3039 RMK A01 T10051037  RH  079%=      5-min Rain = 0
KKE1 151201Z 22003KT M01/M04 A3039 RMK A01 T10071039  RH  079%=      5-min Rain = 0
KKE1 151202Z 22003KT M01/M04 A3039 RMK A01 T10091039  RH  080%=      5-min Rain = 0
KKE1 151203Z 22003KT M01/M04 A3039 RMK A01 T10091038  RH  081%=      5-min Rain = 0
KKE1 151204Z 21003KT M01/M04 A3039 RMK A01 T10091038  RH  081%=      5-min Rain = 0
KKE1 151205Z 21003KT M01/M04 A3039 RMK A01 T10091037  RH  081%=      5-min Rain = 0
KKE1 151206Z 21003KT M01/M04 A3039 RMK A01 T10091037  RH  081%=      5-min Rain = 0
KKE1 151207Z 21003KT M01/M04 A3039 RMK A01 T10101038  RH  081%=      5-min Rain = 0
KKE1 151208Z 21003KT M01/M04 A3039 RMK A01 T10111039  RH  081%=      5-min Rain = 0
KKE1 151209Z 21003KT M01/M04 A3039 RMK A01 T10111038  RH  082%=      5-min Rain = 0
KKE1 151210Z 21003KT M01/M04 A3039 RMK A01 T10111037  RH  082%=      5-min Rain = 0
KKE1 151211Z 21003KT M01/M04 A3039 RMK A01 T10111038  RH  082%=      5-min Rain = 0
KKE1 151212Z 21003KT M01/M04 A3039 RMK A01 T10111038  RH  082%=      5-min Rain = 0
KKE1 151213Z 21004KT M01/M04 A3039 RMK A01 T10111038  RH  082%=      5-min Rain = 0
KKE1 151214Z 21004KT M01/M04 A3039 RMK A01 T10111037  RH  082%=      5-min Rain = 0
KKE1 151215Z 21004KT M01/M04 A3039 RMK A01 T10101037  RH  082%=      5-min Rain = 0
KKE1 151216Z 21004KT M01/M04 A3039 RMK A01 T10091036  RH  082%=      5-min Rain = 0
KKE1 151217Z 21004KT M01/M04 A3039 RMK A01 T10081035  RH  082%=      5-min Rain = 0
KKE1 151218Z 21004KT M01/M04 A3039 RMK A01 T10081036  RH  082%=      5-min Rain = 0
KKE1 151219Z 22004KT M01/M04 A3039 RMK A01 T10081036  RH  082%=      5-min Rain = 0
KKE1 151220Z 22004KT M01/M03 A3039 RMK A01 T10051034  RH  081%=      5-min Rain = 0
KKE1 151221Z 22004KT M00/M03 A3039 RMK A01 T10031033  RH  080%=      5-min Rain = 0
KKE1 151222Z 22004KT M00/M04 A3039 RMK A01 T10021035  RH  079%=      5-min Rain = 0
KKE1 151223Z 23005KT M00/M04 A3039 RMK A01 T10021035  RH  078%=      5-min Rain = 0
KKE1 151224Z 23005KT M00/M04 A3039 RMK A01 T10021036  RH  078%=      5-min Rain = 0
KKE1 151225Z 23005KT M00/M04 A3039 RMK A01 T10021036  RH  078%=      5-min Rain = 0
KKE1 151226Z 23005KT M00/M04 A3039 RMK A01 T10021036  RH  078%=      5-min Rain = 0
KKE1 151227Z 23005KT M00/M04 A3039 RMK A01 T10011036  RH  077%=      5-min Rain = 0
KKE1 151228Z 23005KT 00/04 A3039 RMK A01 T00000-36  RH  077%=      5-min Rain = 0
KKE1 151229Z 24004KT 00/M04 A3039 RMK A01 T00011036  RH  076%=      5-min Rain = 0
KKE1 151230Z 23004KT 00/M04 A3039 RMK A01 T00011035  RH  077%=      5-min Rain = 0
KKE1 151231Z 23004KT 00/M04 A3039 RMK A01 T00011035  RH  077%=      5-min Rain = 0
KKE1 151232Z 24003KT 00/M04 A3039 RMK A01 T00011035  RH  077%=      5-min Rain = 0
KKE1 151233Z 24003KT 00/M03 A3039 RMK A01 T00011034  RH  077%=      5-min Rain = 0
KKE1 151234Z 24003KT 00/M03 A3039 RMK A01 T00011034  RH  077%=      5-min Rain = 0
KKE1 151235Z 23004KT 00/04 A3039 RMK A01 T00000-35  RH  077%=      5-min Rain = 0
KKE1 151236Z 23003KT M00/M04 A3039 RMK A01 T10011036  RH  077%=      5-min Rain = 0
KKE1 151237Z 23004KT M00/M04 A3039 RMK A01 T10021036  RH  078%=      5-min Rain = 0
KKE1 151238Z 24004KT M00/M03 A3039 RMK A01 T10011034  RH  078%=      5-min Rain = 0
KKE1 151239Z 23005KT 00/M03 A3039 RMK A01 T00021033  RH  078%=      5-min Rain = 0
KKE1 151240Z 23004KT 00/M03 A3039 RMK A01 T00041033  RH  076%=      5-min Rain = 0
KKE1 151241Z 22003KT 01/M03 A3039 RMK A01 T00051033  RH  075%=      5-min Rain = 0
KKE1 151242Z 22003KT 01/M03 A3039 RMK A01 T00051034  RH  075%=      5-min Rain = 0
KKE1 151243Z 22003KT 01/M04 A3039 RMK A01 T00051035  RH  075%=      5-min Rain = 0
KKE1 151244Z 21003KT 00/M04 A3039 RMK A01 T00041035  RH  075%=      5-min Rain = 0
KKE1 151245Z 21003KT 00/M04 A3039 RMK A01 T00021036  RH  076%=      5-min Rain = 0
KKE1 151246Z 22003KT 00/04 A3039 RMK A01 T00000-36  RH  076%=      5-min Rain = 0
KKE1 151247Z 22003KT M00/M04 A3039 RMK A01 T10011036  RH  077%=      5-min Rain = 0
KKE1 151248Z 22003KT M00/M04 A3039 RMK A01 T10011036  RH  077%=      5-min Rain = 0
KKE1 151249Z 22003KT M00/M04 A3039 RMK A01 T10021036  RH  078%=      5-min Rain = 0
KKE1 151250Z 21003KT M00/M04 A3039 RMK A01 T10031036  RH  078%=      5-min Rain = 0
KKE1 151251Z 21004KT M00/M04 A3039 RMK A01 T10031036  RH  078%=      5-min Rain = 0
KKE1 151252Z 21004KT M00/M04 A3039 RMK A01 T10031037  RH  078%=      5-min Rain = 0
KKE1 151253Z 22003KT M00/M04 A3039 RMK A01 T10031036  RH  078%=      5-min Rain = 0
KKE1 151254Z 22003KT M00/M04 A3039 RMK A01 T10031037  RH  078%=      5-min Rain = 0
KKE1 151255Z 21003KT M00/M04 A3039 RMK A01 T10031037  RH  078%=      5-min Rain = 0
KKE1 151256Z 22003KT M00/M04 A3039 RMK A01 T10041036  RH  079%=      5-min Rain = 0
KKE1 151257Z 21003KT M00/M04 A3039 RMK A01 T10031036  RH  079%=      5-min Rain = 0
KKE1 151258Z 22003KT M00/M04 A3039 RMK A01 T10021035  RH  078%=      5-min Rain = 0
KKE1 151259Z 22003KT M00/M04 A3039 RMK A01 T10021036  RH  078%=      5-min Rain = 0
KKE1 151300Z 21003KT M00/M04 A3039 RMK A01 T10021036  RH  078%=      5-min Rain = 0
KKE1 151301Z 22003KT M00/M04 A3039 RMK A01 T10011035  RH  078%=      5-min Rain = 0
KKE1 151302Z 21003KT M00/M04 A3039 RMK A01 T10011035  RH  078%=      5-min Rain = 0
KKE1 151303Z 21003KT M00/M04 A3039 RMK A01 T10011035  RH  078%=      5-min Rain = 0
KKE1 151304Z 21003KT M00/M03 A3039 RMK A01 T10011034  RH  078%=      5-min Rain = 0
KKE1 151305Z 21003KT M00/M03 A3039 RMK A01 T10011034  RH  079%=      5-min Rain = 0
KKE1 151306Z 21003KT M00/M04 A3039 RMK A01 T10011035  RH  078%=      5-min Rain = 0
KKE1 151307Z 21003KT M00/M04 A3039 RMK A01 T10011035  RH  078%=      5-min Rain = 0
KKE1 151308Z 22003KT M00/M04 A3039 RMK A01 T10021036  RH  078%=      5-min Rain = 0
KKE1 151309Z 22003KT M00/M04 A304 RMK A01 T10031036  RH  079%=      5-min Rain = 0
KKE1 151310Z 21004KT M00/M04 A304 RMK A01 T10031035  RH  079%=      5-min Rain = 0
KKE1 151311Z 22004KT M00/M04 A304 RMK A01 T10031036  RH  078%=      5-min Rain = 0
KKE1 151312Z 20003KT M00/M04 A304 RMK A01 T10031036  RH  079%=      5-min Rain = 0
KKE1 151313Z 20003KT M00/M04 A304 RMK A01 T10031036  RH  079%=      5-min Rain = 0
KKE1 151314Z 20003KT M00/M04 A304 RMK A01 T10041036  RH  079%=      5-min Rain = 0
KKE1 151315Z 20003KT M00/M04 A304 RMK A01 T10041037  RH  079%=      5-min Rain = 0
KKE1 151316Z 21004KT M01/M04 A304 RMK A01 T10061037  RH  079%=      5-min Rain = 0
KKE1 151317Z 20004KT M01/M04 A304 RMK A01 T10061037  RH  079%=      5-min Rain = 0
KKE1 151318Z 21004KT M01/M04 A304 RMK A01 T10051036  RH  080%=      5-min Rain = 0
KKE1 151319Z 22005KT M01/M04 A304 RMK A01 T10051037  RH  079%=      5-min Rain = 0
KKE1 151320Z 22005KT M01/M04 A304 RMK A01 T10071039  RH  079%=      5-min Rain = 0
KKE1 151321Z 22005KT M01/M04 A304 RMK A01 T10091039  RH  080%=      5-min Rain = 0
KKE1 151322Z 22005KT M01/M04 A304 RMK A01 T10091038  RH  081%=      5-min Rain = 0
KKE1 151323Z 21005KT M01/M04 A304 RMK A01 T10081037  RH  081%=      5-min Rain = 0
KKE1 151324Z 21004KT M01/M04 A304 RMK A01 T10071036  RH  081%=      5-min Rain = 0
KKE1 151325Z 21005KT M01/M04 A304 RMK A01 T10071036  RH  081%=      5-min Rain = 0
KKE1 151326Z 21005KT M01/M03 A304 RMK A01 T10051034  RH  081%=      5-min Rain = 0
KKE1 151327Z 21005KT M00/M03 A304 RMK A01 T10031033  RH  080%=      5-min Rain = 0
KKE1 151328Z 22005KT M00/M03 A304 RMK A01 T10021033  RH  079%=      5-min Rain = 0
KKE1 151329Z 23006KT M00/M03 A304 RMK A01 T10011034  RH  079%=      5-min Rain = 0
KKE1 151330Z 23006KT M00/M03 A304 RMK A01 T10021034  RH  079%=      5-min Rain = 0
KKE1 151331Z 22005KT M00/M03 A304 RMK A01 T10011034  RH  078%=      5-min Rain = 0
KKE1 151332Z 22005KT M00/M03 A304 RMK A01 T10011034  RH  078%=      5-min Rain = 0
KKE1 151333Z 22005KT 00/03 A304 RMK A01 T00-00-34  RH  078%=      5-min Rain = 0
KKE1 151334Z 22004KT M00/M04 A304 RMK A01 T10011035  RH  078%=      5-min Rain = 0
KKE1 151335Z 22004KT M00/M04 A304 RMK A01 T10011035  RH  078%=      5-min Rain = 0
KKE1 151336Z 22004KT M00/M03 A304 RMK A01 T10011034  RH  078%=      5-min Rain = 0
KKE1 151337Z 23005KT 00/M03 A304 RMK A01 T00011034  RH  078%=      5-min Rain = 0
KKE1 151338Z 22005KT 00/M03 A304 RMK A01 T00021034  RH  077%=      5-min Rain = 0
KKE1 151339Z 22005KT 00/M03 A304 RMK A01 T00021034  RH  076%=      5-min Rain = 0
KKE1 151340Z 22005KT 00/M03 A304 RMK A01 T00031034  RH  076%=      5-min Rain = 0
KKE1 151341Z 23005KT 00/M04 A304 RMK A01 T00021035  RH  076%=      5-min Rain = 0
KKE1 151342Z 23004KT 00/M04 A304 RMK A01 T00011035  RH  076%=      5-min Rain = 0
KKE1 151343Z 22005KT 00/M04 A304 RMK A01 T00011035  RH  077%=      5-min Rain = 0
KKE1 151344Z 22005KT 00/M03 A304 RMK A01 T00031034  RH  076%=      5-min Rain = 0
KKE1 151345Z 23005KT 01/M03 A3041 RMK A01 T00071032  RH  075%=      5-min Rain = 0
KKE1 151346Z 22005KT 01/M03 A3041 RMK A01 T00101032  RH  074%=      5-min Rain = 0
KKE1 151347Z 22004KT 01/M03 A3041 RMK A01 T00111032  RH  073%=      5-min Rain = 0
KKE1 151348Z 23004KT 01/M03 A3041 RMK A01 T00121032  RH  072%=      5-min Rain = 0
KKE1 151349Z 23004KT 01/M03 A3041 RMK A01 T00121033  RH  072%=      5-min Rain = 0
KKE1 151350Z 24004KT 01/M03 A3041 RMK A01 T00131032  RH  072%=      5-min Rain = 0
KKE1 151351Z 24004KT 01/M03 A304 RMK A01 T00131032  RH  072%=      5-min Rain = 0
KKE1 151352Z 24003KT 01/M03 A304 RMK A01 T00141031  RH  072%=      5-min Rain = 0
KKE1 151353Z 24003KT 01/M03 A304 RMK A01 T00141031  RH  072%=      5-min Rain = 0
KKE1 151354Z 24003KT 02/M03 A304 RMK A01 T00151031  RH  072%=      5-min Rain = 0
KKE1 151355Z 24002KT 02/M03 A304 RMK A01 T00151031  RH  071%=      5-min Rain = 0
KKE1 151356Z 24003KT 02/M03 A304 RMK A01 T00151031  RH  072%=      5-min Rain = 0
KKE1 151357Z 24003KT 02/M03 A304 RMK A01 T00161030  RH  072%=      5-min Rain = 0
KKE1 151358Z 24003KT 02/M03 A304 RMK A01 T00181029  RH  071%=      5-min Rain = 0
KKE1 151359Z 24002KT 02/M03 A3041 RMK A01 T00191028  RH  071%=      5-min Rain = 0
KKE1 151400Z 24002KT 02/M03 A3041 RMK A01 T00211028  RH  070%=      5-min Rain = 0
KKE1 151401Z 24003KT 02/M03 A3041 RMK A01 T00221028  RH  070%=      5-min Rain = 0
KKE1 151402Z 24004KT 02/M03 A3041 RMK A01 T00221028  RH  070%=      5-min Rain = 0
KKE1 151403Z 24003KT 02/M03 A3041 RMK A01 T00231028  RH  069%=      5-min Rain = 0
KKE1 151404Z 25003KT 02/M03 A3041 RMK A01 T00231027  RH  069%=      5-min Rain = 0
KKE1 151405Z 26002KT 02/M03 A3041 RMK A01 T00241026  RH  069%=      5-min Rain = 0
KKE1 151406Z 26001KT 03/M03 A3041 RMK A01 T00251027  RH  069%=      5-min Rain = 0
KKE1 151407Z 26001KT 03/M03 A3041 RMK A01 T00251026  RH  069%=      5-min Rain = 0
KKE1 151408Z 27001KT 03/M03 A3041 RMK A01 T00251027  RH  069%=      5-min Rain = 0
KKE1 151409Z 27001KT 03/M03 A3041 RMK A01 T00251026  RH  069%=      5-min Rain = 0
KKE1 151410Z 27001KT 03/M03 A3041 RMK A01 T00261026  RH  069%=      5-min Rain = 0
KKE1 151411Z 27000KT 03/M03 A3041 RMK A01 T00271025  RH  069%=      5-min Rain = 0
KKE1 151412Z 00000KT 03/M03 A3041 RMK A01 T00291025  RH  068%=      5-min Rain = 0
KKE1 151413Z 00000KT 03/M03 A3041 RMK A01 T00301025  RH  067%=      5-min Rain = 0
KKE1 151414Z 00000KT 03/M03 A3041 RMK A01 T00301025  RH  067%=      5-min Rain = 0
KKE1 151415Z 00000KT 03/M02 A3041 RMK A01 T00311024  RH  067%=      5-min Rain = 0
KKE1 151416Z 00000KT 03/M02 A3041 RMK A01 T00321023  RH  067%=      5-min Rain = 0
KKE1 151417Z 26000KT 03/M02 A3041 RMK A01 T00321023  RH  067%=      5-min Rain = 0
KKE1 151418Z 26001KT 03/M02 A3041 RMK A01 T00331022  RH  067%=      5-min Rain = 0
KKE1 151419Z 25001KT 03/M02 A3041 RMK A01 T00341023  RH  067%=      5-min Rain = 0
KKE1 151420Z 24002KT 04/M02 A3041 RMK A01 T00351022  RH  066%=      5-min Rain = 0
KKE1 151421Z 22002KT 04/M02 A3041 RMK A01 T00351021  RH  066%=      5-min Rain = 0
KKE1 151422Z 23002KT 04/M02 A3041 RMK A01 T00371021  RH  066%=      5-min Rain = 0
KKE1 151423Z 22003KT 04/M02 A3041 RMK A01 T00391021  RH  065%=      5-min Rain = 0
KKE1 151424Z 23003KT 04/M02 A3041 RMK A01 T00411021  RH  064%=      5-min Rain = 0
KKE1 151425Z 23003KT 04/M02 A3041 RMK A01 T00441020  RH  063%=      5-min Rain = 0
KKE1 151426Z 23004KT 05/M02 A3041 RMK A01 T00461020  RH  062%=      5-min Rain = 0
KKE1 151427Z 22004KT 05/M02 A3041 RMK A01 T00481020  RH  061%=      5-min Rain = 0
KKE1 151428Z 23004KT 05/M02 A3041 RMK A01 T00501020  RH  060%=      5-min Rain = 0
KKE1 151429Z 23004KT 05/M02 A3041 RMK A01 T00521020  RH  060%=      5-min Rain = 0
KKE1 151430Z 23005KT 05/M02 A3041 RMK A01 T00531020  RH  059%=      5-min Rain = 0
KKE1 151431Z 22005KT 05/M02 A3041 RMK A01 T00541021  RH  059%=      5-min Rain = 0
KKE1 151432Z 22005KT 06/M02 A3041 RMK A01 T00551021  RH  058%=      5-min Rain = 0
KKE1 151433Z 22006KT 06/M02 A3041 RMK A01 T00561021  RH  058%=      5-min Rain = 0
KKE1 151434Z 22005KT 06/M02 A3041 RMK A01 T00561022  RH  057%=      5-min Rain = 0
KKE1 151435Z 22006KT 06/M02 A3041 RMK A01 T00561022  RH  057%=      5-min Rain = 0
KKE1 151436Z 22005KT 06/M02 A3041 RMK A01 T00571022  RH  057%=      5-min Rain = 0
KKE1 151437Z 22005KT 06/M02 A3041 RMK A01 T00571022  RH  057%=      5-min Rain = 0
KKE1 151438Z 22005KT 06/M02 A3041 RMK A01 T00581022  RH  057%=      5-min Rain = 0
KKE1 151439Z 22005KT 06/M02 A3041 RMK A01 T00581022  RH  057%=      5-min Rain = 0
KKE1 151440Z 22005KT 06/M02 A3041 RMK A01 T00591021  RH  057%=      5-min Rain = 0
KKE1 151441Z 22005KT 06/M02 A3041 RMK A01 T00601022  RH  056%=      5-min Rain = 0
KKE1 151442Z 22004KT 06/M02 A3041 RMK A01 T00601023  RH  055%=      5-min Rain = 0
KKE1 151443Z 22004KT 06/M02 A3041 RMK A01 T00601022  RH  056%=      5-min Rain = 0
KKE1 151444Z 21006KT 06/M02 A3041 RMK A01 T00611022  RH  055%=      5-min Rain = 0
KKE1 151445Z 22005KT 06/M02 A3041 RMK A01 T00611022  RH  055%=      5-min Rain = 0
KKE1 151446Z 22006KT 06/M02 A3041 RMK A01 T00621022  RH  055%=      5-min Rain = 0
KKE1 151447Z 22006KT 06/M02 A3041 RMK A01 T00621024  RH  054%=      5-min Rain = 0
KKE1 151448Z 22005KT 06/M02 A3041 RMK A01 T00621023  RH  054%=      5-min Rain = 0
KKE1 151449Z 22005KT 06/M02 A3041 RMK A01 T00631022  RH  054%=      5-min Rain = 0
KKE1 151450Z 22005KT 06/M02 A3041 RMK A01 T00641021  RH  055%=      5-min Rain = 0
KKE1 151451Z 22006KT 06/M02 A3041 RMK A01 T00641021  RH  054%=      5-min Rain = 0
KKE1 151452Z 22005KT 07/M02 A3041 RMK A01 T00651021  RH  054%=      5-min Rain = 0
KKE1 151453Z 22006KT 07/M02 A3041 RMK A01 T00661022  RH  053%=      5-min Rain = 0
KKE1 151454Z 21005KT 07/M02 A3041 RMK A01 T00661022  RH  053%=      5-min Rain = 0
KKE1 151455Z 22005KT 07/M02 A3041 RMK A01 T00661022  RH  053%=      5-min Rain = 0
KKE1 151456Z 22005KT 07/M02 A3041 RMK A01 T00671022  RH  053%=      5-min Rain = 0
KKE1 151457Z 22005KT 07/M02 A3041 RMK A01 T00671022  RH  053%=      5-min Rain = 0
KKE1 151458Z 22005KT 07/M02 A3041 RMK A01 T00681022  RH  053%=      5-min Rain = 0
KKE1 151459Z 23005KT 07/M02 A3041 RMK A01 T00681021  RH  053%=      5-min Rain = 0
KKE1 151500Z 24006KT 07/M02 A3041 RMK A01 T00691021  RH  053%=      5-min Rain = 0
KKE1 151501Z 23006KT 07/M02 A3041 RMK A01 T00701022  RH  052%=      5-min Rain = 0
KKE1 151502Z 24007KT 07/M02 A3041 RMK A01 T00701022  RH  052%=      5-min Rain = 0
KKE1 151503Z 24007KT 07/M02 A3041 RMK A01 T00711021  RH  052%=      5-min Rain = 0
KKE1 151504Z 24007KT 07/M02 A3041 RMK A01 T00711023  RH  051%=      5-min Rain = 0
KKE1 151505Z 24007KT 07/M02 A304 RMK A01 T00711023  RH  051%=      5-min Rain = 0
KKE1 151506Z 25007KT 07/M02 A304 RMK A01 T00711023  RH  051%=      5-min Rain = 0
KKE1 151507Z 25007KT 07/M02 A304 RMK A01 T00711022  RH  051%=      5-min Rain = 0
KKE1 151508Z 25007KT 07/M02 A304 RMK A01 T00721022  RH  051%=      5-min Rain = 0
KKE1 151509Z 25008KT 07/M02 A304 RMK A01 T00721023  RH  051%=      5-min Rain = 0
KKE1 151510Z 25006KT 07/M02 A304 RMK A01 T00721022  RH  051%=      5-min Rain = 0
KKE1 151511Z 23005KT 07/M02 A304 RMK A01 T00721022  RH  051%=      5-min Rain = 0
KKE1 151512Z 24005KT 07/M02 A304 RMK A01 T00721023  RH  051%=      5-min Rain = 0
KKE1 151513Z 23006KT 07/M02 A304 RMK A01 T00721022  RH  051%=      5-min Rain = 0
KKE1 151514Z 24006KT 07/M02 A304 RMK A01 T00731023  RH  051%=      5-min Rain = 0
KKE1 151515Z 24005KT 07/M02 A304 RMK A01 T00731023  RH  050%=      5-min Rain = 0
KKE1 151516Z 24006KT 07/M02 A304 RMK A01 T00731022  RH  051%=      5-min Rain = 0
KKE1 151517Z 24006KT 07/M02 A3041 RMK A01 T00741022  RH  051%=      5-min Rain = 0
KKE1 151518Z 24007KT 07/M02 A3041 RMK A01 T00741022  RH  050%=      5-min Rain = 0
KKE1 151519Z 24006KT 07/M02 A3041 RMK A01 T00741023  RH  050%=      5-min Rain = 0
KKE1 151520Z 24005KT 08/M02 A3041 RMK A01 T00751021  RH  050%=      5-min Rain = 0
KKE1 151521Z 25006KT 08/M02 A3041 RMK A01 T00771020  RH  050%=      5-min Rain = 0
KKE1 151522Z 25006KT 08/M02 A3041 RMK A01 T00781021  RH  049%=      5-min Rain = 0
KKE1 151523Z 26006KT 08/M02 A3041 RMK A01 T00781021  RH  050%=      5-min Rain = 0
KKE1 151524Z 25007KT 08/M02 A3041 RMK A01 T00791020  RH  049%=      5-min Rain = 0
KKE1 151525Z 26007KT 08/M02 A3041 RMK A01 T00791021  RH  049%=      5-min Rain = 0
KKE1 151526Z 25006KT 08/M02 A3041 RMK A01 T00791022  RH  049%=      5-min Rain = 0
KKE1 151527Z 24005KT 08/M02 A3041 RMK A01 T00791022  RH  049%=      5-min Rain = 0
KKE1 151528Z 24005KT 08/M02 A3041 RMK A01 T00801022  RH  049%=      5-min Rain = 0
KKE1 151529Z 26005KT 08/M02 A3041 RMK A01 T00801023  RH  048%=      5-min Rain = 0
KKE1 151530Z 25006KT 08/M02 A3041 RMK A01 T00801022  RH  048%=      5-min Rain = 0
KKE1 151531Z 25006KT 08/M02 A3041 RMK A01 T00811022  RH  048%=      5-min Rain = 0
KKE1 151532Z 25006KT 08/M02 A3041 RMK A01 T00811023  RH  048%=      5-min Rain = 0
KKE1 151533Z 25005KT 08/M02 A3041 RMK A01 T00811023  RH  048%=      5-min Rain = 0
KKE1 151534Z 25004KT 08/M02 A3041 RMK A01 T00811023  RH  048%=      5-min Rain = 0
KKE1 151535Z 25004KT 08/M02 A3041 RMK A01 T00811022  RH  048%=      5-min Rain = 0
KKE1 151536Z 26005KT 08/M02 A3041 RMK A01 T00831022  RH  048%=      5-min Rain = 0
KKE1 151537Z 25005KT 08/M02 A3041 RMK A01 T00831023  RH  047%=      5-min Rain = 0
KKE1 151538Z 24005KT 08/M02 A3041 RMK A01 T00831023  RH  047%=      5-min Rain = 0
KKE1 151539Z 26006KT 08/M02 A3041 RMK A01 T00831023  RH  047%=      5-min Rain = 0
KKE1 151540Z 26005KT 08/M02 A3041 RMK A01 T00831023  RH  047%=      5-min Rain = 0
KKE1 151541Z 25004KT 08/M02 A3041 RMK A01 T00841023  RH  047%=      5-min Rain = 0
KKE1 151542Z 27004KT 09/M02 A3041 RMK A01 T00851022  RH  047%=      5-min Rain = 0
KKE1 151543Z 25005KT 09/M02 A3041 RMK A01 T00861024  RH  046%=      5-min Rain = 0
KKE1 151544Z 24003KT 09/M02 A3041 RMK A01 T00861023  RH  046%=      5-min Rain = 0
KKE1 151545Z 27005KT 09/M02 A3041 RMK A01 T00871023  RH  046%=      5-min Rain = 0
KKE1 151546Z 27003KT 09/M03 A304 RMK A01 T00871025  RH  045%=      5-min Rain = 0
KKE1 151547Z 25003KT 09/M02 A3041 RMK A01 T00861024  RH  046%=      5-min Rain = 0
KKE1 151548Z 27003KT 09/M03 A3041 RMK A01 T00861026  RH  045%=      5-min Rain = 0
KKE1 151549Z 29003KT 09/M02 A3041 RMK A01 T00871024  RH  046%=      5-min Rain = 0
KKE1 151550Z 25004KT 09/M02 A3041 RMK A01 T00891022  RH  046%=      5-min Rain = 0
KKE1 151551Z 25005KT 09/M03 A3041 RMK A01 T00901025  RH  044%=      5-min Rain = 0
KKE1 151552Z 26004KT 09/M03 A3041 RMK A01 T00881025  RH  045%=      5-min Rain = 0
KKE1 151553Z 26004KT 09/M03 A3041 RMK A01 T00881025  RH  045%=      5-min Rain = 0
KKE1 151554Z 26003KT 09/M03 A3041 RMK A01 T00881027  RH  044%=      5-min Rain = 0
KKE1 151555Z 26002KT 09/M03 A3041 RMK A01 T00871027  RH  044%=      5-min Rain = 0
KKE1 151556Z 27004KT 09/M03 A304 RMK A01 T00881025  RH  045%=      5-min Rain = 0
KKE1 151557Z 26005KT 09/M03 A304 RMK A01 T00891025  RH  045%=      5-min Rain = 0
KKE1 151558Z 26005KT 09/M03 A304 RMK A01 T00891025  RH  045%=      5-min Rain = 0
KKE1 151559Z 26005KT 09/M03 A304 RMK A01 T00891026  RH  044%=      5-min Rain = 0
KKE1 151600Z 25003KT 09/M03 A304 RMK A01 T00891027  RH  044%=      5-min Rain = 0
KKE1 151601Z 28004KT 09/M03 A304 RMK A01 T00891027  RH  044%=      5-min Rain = 0
KKE1 151602Z 28003KT 09/M03 A304 RMK A01 T00891026  RH  044%=      5-min Rain = 0
KKE1 151603Z 27005KT 09/M03 A304 RMK A01 T00901025  RH  044%=      5-min Rain = 0
KKE1 151604Z 28004KT 09/M03 A304 RMK A01 T00921025  RH  044%=      5-min Rain = 0
KKE1 151605Z 28003KT 09/M03 A304 RMK A01 T00921028  RH  043%=      5-min Rain = 0
KKE1 151606Z 28002KT 09/M03 A304 RMK A01 T00911030  RH  043%=      5-min Rain = 0
KKE1 151607Z 27003KT 09/M03 A304 RMK A01 T00901030  RH  043%=      5-min Rain = 0
KKE1 151608Z 27003KT 09/M03 A304 RMK A01 T00911026  RH  044%=      5-min Rain = 0
KKE1 151609Z 28002KT 09/M03 A304 RMK A01 T00931025  RH  044%=      5-min Rain = 0
KKE1 151610Z 28001KT 09/M03 A304 RMK A01 T00941026  RH  043%=      5-min Rain = 0
KKE1 151611Z 27004KT 10/M03 A304 RMK A01 T00951028  RH  042%=      5-min Rain = 0
KKE1 151612Z 28004KT 09/M03 A304 RMK A01 T00941029  RH  042%=      5-min Rain = 0
KKE1 151613Z 29003KT 09/M03 A304 RMK A01 T00921030  RH  042%=      5-min Rain = 0
KKE1 151614Z 32002KT 09/M03 A304 RMK A01 T00911028  RH  043%=      5-min Rain = 0
KKE1 151615Z 33003KT 09/M03 A304 RMK A01 T00911029  RH  043%=      5-min Rain = 0
KKE1 151616Z 33002KT 09/M03 A304 RMK A01 T00921029  RH  043%=      5-min Rain = 0
KKE1 151617Z 26004KT 09/M03 A304 RMK A01 T00921028  RH  043%=      5-min Rain = 0
KKE1 151618Z 24003KT 09/M03 A304 RMK A01 T00941027  RH  042%=      5-min Rain = 0
KKE1 151619Z 24002KT 09/M03 A304 RMK A01 T00941029  RH  042%=      5-min Rain = 0
KKE1 151620Z 25004KT 09/M03 A304 RMK A01 T00941027  RH  042%=      5-min Rain = 0
KKE1 151621Z 25004KT 09/M03 A304 RMK A01 T00941028  RH  042%=      5-min Rain = 0
KKE1 151622Z 27002KT 09/M03 A304 RMK A01 T00941029  RH  042%=      5-min Rain = 0
KKE1 151623Z 28001KT 09/M03 A304 RMK A01 T00931030  RH  042%=      5-min Rain = 0
KKE1 151624Z 23000KT 09/M03 A304 RMK A01 T00931031  RH  042%=      5-min Rain = 0
KKE1 151625Z 29000KT 10/M03 A304 RMK A01 T00951028  RH  042%=      5-min Rain = 0
KKE1 151626Z 32003KT 10/M03 A304 RMK A01 T00961026  RH  042%=      5-min Rain = 0
KKE1 151627Z 31002KT 10/M03 A304 RMK A01 T00971027  RH  042%=      5-min Rain = 0
KKE1 151628Z 27001KT 10/M03 A304 RMK A01 T00971025  RH  042%=      5-min Rain = 0
KKE1 151629Z 28002KT 10/M03 A304 RMK A01 T00981027  RH  041%=      5-min Rain = 0
KKE1 151630Z 29002KT 10/M03 A304 RMK A01 T00981028  RH  041%=      5-min Rain = 0
KKE1 151631Z 30003KT 10/M03 A304 RMK A01 T00971028  RH  041%=      5-min Rain = 0
KKE1 151632Z 32002KT 10/M03 A304 RMK A01 T00971027  RH  042%=      5-min Rain = 0
KKE1 151633Z 22002KT 10/M03 A304 RMK A01 T00981027  RH  041%=      5-min Rain = 0
KKE1 151634Z 22004KT 10/M03 A304 RMK A01 T01001027  RH  041%=      5-min Rain = 0
KKE1 151635Z 24005KT 10/M03 A304 RMK A01 T01001027  RH  041%=      5-min Rain = 0
KKE1 151636Z 24003KT 10/M03 A304 RMK A01 T00991028  RH  041%=      5-min Rain = 0
KKE1 151637Z 20002KT 10/M03 A304 RMK A01 T00981026  RH  042%=      5-min Rain = 0
KKE1 151638Z 19003KT 10/M03 A304 RMK A01 T01001027  RH  041%=      5-min Rain = 0
KKE1 151639Z 20004KT 10/M03 A304 RMK A01 T01021026  RH  041%=      5-min Rain = 0
KKE1 151640Z 26005KT 10/M03 A304 RMK A01 T01031026  RH  040%=      5-min Rain = 0
KKE1 151641Z 29003KT 10/M03 A304 RMK A01 T01031027  RH  040%=      5-min Rain = 0
KKE1 151642Z 30003KT 10/M03 A304 RMK A01 T01011027  RH  041%=      5-min Rain = 0
KKE1 151643Z 28004KT 10/M03 A304 RMK A01 T01021027  RH  040%=      5-min Rain = 0
KKE1 151644Z 29002KT 10/M03 A304 RMK A01 T01021027  RH  040%=      5-min Rain = 0
KKE1 151645Z 24004KT 10/M03 A304 RMK A01 T01031025  RH  041%=      5-min Rain = 0
KKE1 151646Z 26003KT 10/M03 A304 RMK A01 T01041027  RH  040%=      5-min Rain = 0
KKE1 151647Z 25004KT 10/M03 A304 RMK A01 T01021029  RH  040%=      5-min Rain = 0
KKE1 151648Z 25003KT 10/M03 A304 RMK A01 T01011030  RH  040%=      5-min Rain = 0
KKE1 151649Z 23001KT 10/M03 A304 RMK A01 T01001029  RH  040%=      5-min Rain = 0
KKE1 151650Z 22001KT 10/M03 A304 RMK A01 T01021028  RH  040%=      5-min Rain = 0
KKE1 151651Z 27002KT 10/M03 A304 RMK A01 T01031028  RH  040%=      5-min Rain = 0
KKE1 151652Z 25001KT 10/M03 A304 RMK A01 T01041028  RH  039%=      5-min Rain = 0
KKE1 151653Z 28004KT 11/M03 A304 RMK A01 T01051025  RH  040%=      5-min Rain = 0
KKE1 151654Z 30004KT 11/M03 A304 RMK A01 T01071026  RH  039%=      5-min Rain = 0
KKE1 151655Z 29005KT 11/M03 A304 RMK A01 T01071027  RH  039%=      5-min Rain = 0
KKE1 151656Z 30004KT 11/M03 A304 RMK A01 T01061027  RH  039%=      5-min Rain = 0
KKE1 151657Z 30004KT 11/M03 A3039 RMK A01 T01061026  RH  039%=      5-min Rain = 0
KKE1 151658Z 29004KT 11/M03 A3039 RMK A01 T01061028  RH  039%=      5-min Rain = 0
KKE1 151659Z 30002KT 10/M03 A3039 RMK A01 T01031032  RH  039%=      5-min Rain = 0
KKE1 151700Z 31001KT 10/M03 A3039 RMK A01 T01021032  RH  039%=      5-min Rain = 0
KKE1 151701Z 30000KT 10/M03 A3039 RMK A01 T01011032  RH  039%=      5-min Rain = 0
KKE1 151702Z 00000KT 10/M03 A3039 RMK A01 T01041031  RH  039%=      5-min Rain = 0
KKE1 151703Z 36002KT 11/M03 A3039 RMK A01 T01071029  RH  038%=      5-min Rain = 0
KKE1 151704Z 34002KT 11/M03 A3039 RMK A01 T01091028  RH  038%=      5-min Rain = 0
KKE1 151705Z 35003KT 11/M03 A3039 RMK A01 T01091026  RH  039%=      5-min Rain = 0
KKE1 151706Z 33004KT 11/M03 A3039 RMK A01 T01121026  RH  038%=      5-min Rain = 0
KKE1 151707Z 33004KT 11/M03 A3039 RMK A01 T01111026  RH  038%=      5-min Rain = 0
KKE1 151708Z 34003KT 11/M03 A3039 RMK A01 T01101027  RH  038%=      5-min Rain = 0
KKE1 151709Z 33002KT 11/M03 A3039 RMK A01 T01081027  RH  039%=      5-min Rain = 0
KKE1 151710Z 32005KT 11/M03 A3039 RMK A01 T01081025  RH  039%=      5-min Rain = 0
KKE1 151711Z 35004KT 11/M02 A3039 RMK A01 T01091024  RH  039%=      5-min Rain = 0
KKE1 151712Z 35002KT 11/M03 A3039 RMK A01 T01091025  RH  039%=      5-min Rain = 0
KKE1 151713Z 33001KT 11/M03 A3039 RMK A01 T01091026  RH  039%=      5-min Rain = 0
KKE1 151714Z 28001KT 11/M03 A3039 RMK A01 T01101026  RH  039%=      5-min Rain = 0
KKE1 151715Z 23002KT 11/M02 A3039 RMK A01 T01101024  RH  039%=      5-min Rain = 0
KKE1 151716Z 27002KT 11/M02 A3039 RMK A01 T01141024  RH  038%=      5-min Rain = 0
KKE1 151717Z 30003KT 12/M02 A3039 RMK A01 T01151023  RH  038%=      5-min Rain = 0
KKE1 151718Z 29004KT 12/M02 A3039 RMK A01 T01161021  RH  038%=      5-min Rain = 0
KKE1 151719Z 28005KT 12/M02 A3039 RMK A01 T01181022  RH  038%=      5-min Rain = 0
KKE1 151720Z 27005KT 12/M02 A3039 RMK A01 T01181022  RH  038%=      5-min Rain = 0
KKE1 151721Z 27004KT 12/M02 A3039 RMK A01 T01171024  RH  037%=      5-min Rain = 0
KKE1 151722Z 24004KT 12/M02 A3039 RMK A01 T01151024  RH  038%=      5-min Rain = 0
KKE1 151723Z 26004KT 12/M02 A3039 RMK A01 T01151024  RH  038%=      5-min Rain = 0
KKE1 151724Z 30004KT 12/M02 A3039 RMK A01 T01161023  RH  038%=      5-min Rain = 0
KKE1 151725Z 29004KT 12/M02 A3039 RMK A01 T01171023  RH  038%=      5-min Rain = 0
KKE1 151726Z 28004KT 12/M03 A3039 RMK A01 T01161025  RH  037%=      5-min Rain = 0
KKE1 151727Z 26003KT 11/M03 A3039 RMK A01 T01141027  RH  037%=      5-min Rain = 0
KKE1 151728Z 29003KT 11/M03 A3039 RMK A01 T01131025  RH  038%=      5-min Rain = 0
KKE1 151729Z 26002KT 12/M03 A3039 RMK A01 T01151025  RH  038%=      5-min Rain = 0
KKE1 151730Z 24004KT 12/M02 A3039 RMK A01 T01161024  RH  037%=      5-min Rain = 0
KKE1 151731Z 22005KT 12/M03 A3039 RMK A01 T01161027  RH  037%=      5-min Rain = 0
KKE1 151732Z 23003KT 12/M03 A3039 RMK A01 T01151026  RH  037%=      5-min Rain = 0
KKE1 151733Z 22003KT 12/M03 A3039 RMK A01 T01171025  RH  037%=      5-min Rain = 0
KKE1 151734Z 24004KT 12/M03 A3039 RMK A01 T01161026  RH  037%=      5-min Rain = 0
KKE1 151735Z 25005KT 12/M03 A3039 RMK A01 T01161025  RH  037%=      5-min Rain = 0
KKE1 151736Z 25003KT 12/M02 A3039 RMK A01 T01161024  RH  037%=      5-min Rain = 0
KKE1 151737Z 27000KT 12/M03 A3038 RMK A01 T01151027  RH  037%=      5-min Rain = 0
KKE1 151738Z 18001KT 11/M03 A3038 RMK A01 T01141026  RH  038%=      5-min Rain = 0
KKE1 151739Z 25001KT 11/M03 A3038 RMK A01 T01141026  RH  037%=      5-min Rain = 0
KKE1 151740Z 30002KT 12/M03 A3038 RMK A01 T01161027  RH  037%=      5-min Rain = 0
KKE1 151741Z 30004KT 12/M03 A3038 RMK A01 T01161027  RH  037%=      5-min Rain = 0
KKE1 151742Z 28001KT 12/M03 A3038 RMK A01 T01161026  RH  037%=      5-min Rain = 0
KKE1 151743Z 32004KT 12/M03 A3038 RMK A01 T01161027  RH  037%=      5-min Rain = 0
KKE1 151744Z 33003KT 12/M03 A3038 RMK A01 T01171026  RH  037%=      5-min Rain = 0
KKE1 151745Z 33002KT 12/M03 A3038 RMK A01 T01171026  RH  037%=      5-min Rain = 0
KKE1 151746Z 31003KT 12/M03 A3038 RMK A01 T01181026  RH  037%=      5-min Rain = 0
KKE1 151747Z 30005KT 12/M03 A3038 RMK A01 T01181025  RH  037%=      5-min Rain = 0
KKE1 151748Z 30004KT 12/M02 A3038 RMK A01 T01181024  RH  037%=      5-min Rain = 0
KKE1 151749Z 30005KT 12/M02 A3038 RMK A01 T01211019  RH  038%=      5-min Rain = 0
KKE1 151750Z 26005KT 12/M02 A3038 RMK A01 T01231021  RH  037%=      5-min Rain = 0
KKE1 151751Z 25005KT 12/M02 A3037 RMK A01 T01231021  RH  037%=      5-min Rain = 0
KKE1 151752Z 23005KT 12/M02 A3037 RMK A01 T01221022  RH  036%=      5-min Rain = 0
KKE1 151753Z 23005KT 12/M02 A3037 RMK A01 T01211023  RH  037%=      5-min Rain = 0
KKE1 151754Z 25005KT 12/M02 A3037 RMK A01 T01201024  RH  037%=      5-min Rain = 0
KKE1 151755Z 25003KT 12/M02 A3037 RMK A01 T01201022  RH  037%=      5-min Rain = 0
KKE1 151756Z 22003KT 12/M02 A3037 RMK A01 T01211023  RH  037%=      5-min Rain = 0
KKE1 151757Z 22003KT 12/M02 A3037 RMK A01 T01211022  RH  037%=      5-min Rain = 0
KKE1 151758Z 24006KT 12/M02 A3037 RMK A01 T01231022  RH  036%=      5-min Rain = 0
KKE1 151759Z 26005KT 13/M02 A3037 RMK A01 T01261020  RH  036%=      5-min Rain = 0
KKE1 151800Z 27003KT 13/M02 A3037 RMK A01 T01281022  RH  035%=      5-min Rain = 0
KKE1 151801Z 27004KT 13/M03 A3037 RMK A01 T01271025  RH  035%=      5-min Rain = 0
KKE1 151802Z 28003KT 13/M02 A3037 RMK A01 T01261024  RH  035%=      5-min Rain = 0
KKE1 151803Z 26004KT 13/M02 A3037 RMK A01 T01261023  RH  035%=      5-min Rain = 0
KKE1 151804Z 24002KT 13/M02 A3037 RMK A01 T01281023  RH  035%=      5-min Rain = 0
KKE1 151805Z 27004KT 13/M03 A3036 RMK A01 T01271025  RH  035%=      5-min Rain = 0
KKE1 151806Z 28004KT 13/M02 A3036 RMK A01 T01271022  RH  035%=      5-min Rain = 0
KKE1 151807Z 29003KT 13/M02 A3036 RMK A01 T01281022  RH  035%=      5-min Rain = 0
KKE1 151808Z 27005KT 13/M02 A3036 RMK A01 T01291022  RH  035%=      5-min Rain = 0
KKE1 151809Z 25006KT 13/M02 A3036 RMK A01 T01311020  RH  035%=      5-min Rain = 0
KKE1 151810Z 26006KT 13/M02 A3036 RMK A01 T01331022  RH  034%=      5-min Rain = 0
KKE1 151811Z 25006KT 13/M02 A3036 RMK A01 T01311023  RH  034%=      5-min Rain = 0
KKE1 151812Z 25005KT 13/M02 A3036 RMK A01 T01301022  RH  035%=      5-min Rain = 0
KKE1 151813Z 26004KT 13/M02 A3036 RMK A01 T01301022  RH  035%=      5-min Rain = 0
KKE1 151814Z 27003KT 13/M02 A3036 RMK A01 T01291022  RH  035%=      5-min Rain = 0
KKE1 151815Z 29002KT 13/M03 A3036 RMK A01 T01291025  RH  034%=      5-min Rain = 0
KKE1 151816Z 23001KT 13/M03 A3036 RMK A01 T01271026  RH  034%=      5-min Rain = 0
KKE1 151817Z 26003KT 13/M03 A3036 RMK A01 T01281025  RH  035%=      5-min Rain = 0
KKE1 151818Z 28003KT 13/M03 A3036 RMK A01 T01291025  RH  034%=      5-min Rain = 0
KKE1 151819Z 28004KT 13/M03 A3036 RMK A01 T01291025  RH  034%=      5-min Rain = 0
KKE1 151820Z 28004KT 13/M02 A3036 RMK A01 T01301024  RH  034%=      5-min Rain = 0
KKE1 151821Z 28003KT 13/M03 A3035 RMK A01 T01291027  RH  034%=      5-min Rain = 0
KKE1 151822Z 28003KT 13/M03 A3035 RMK A01 T01271026  RH  034%=      5-min Rain = 0
KKE1 151823Z 31005KT 13/M03 A3035 RMK A01 T01281026  RH  034%=      5-min Rain = 0
KKE1 151824Z 31004KT 13/M03 A3035 RMK A01 T01291027  RH  034%=      5-min Rain = 0
KKE1 151825Z 32005KT 13/M03 A3035 RMK A01 T01271027  RH  034%=      5-min Rain = 0
KKE1 151826Z 29004KT 13/M02 A3035 RMK A01 T01301023  RH  034%=      5-min Rain = 0
KKE1 151827Z 27007KT 13/M02 A3035 RMK A01 T01341020  RH  034%=      5-min Rain = 0
KKE1 151828Z 27006KT 14/M02 A3035 RMK A01 T01361023  RH  033%=      5-min Rain = 0
KKE1 151829Z 28005KT 13/M02 A3035 RMK A01 T01341023  RH  034%=      5-min Rain = 0
KKE1 151830Z 27005KT 13/M02 A3035 RMK A01 T01341023  RH  033%=      5-min Rain = 0
KKE1 151831Z 27006KT 14/M02 A3035 RMK A01 T01351024  RH  033%=      5-min Rain = 0
KKE1 151832Z 28005KT 14/M02 A3035 RMK A01 T01351024  RH  033%=      5-min Rain = 0
KKE1 151833Z 30002KT 13/M03 A3035 RMK A01 T01331026  RH  033%=      5-min Rain = 0
KKE1 151834Z 36001KT 13/M03 A3035 RMK A01 T01311027  RH  033%=      5-min Rain = 0
KKE1 151835Z 05002KT 13/M03 A3034 RMK A01 T01301026  RH  034%=      5-min Rain = 0
KKE1 151836Z 07001KT 13/M03 A3034 RMK A01 T01301025  RH  034%=      5-min Rain = 0
KKE1 151837Z 10001KT 13/M02 A3034 RMK A01 T01331024  RH  034%=      5-min Rain = 0
KKE1 151838Z 28000KT 14/M02 A3034 RMK A01 T01351024  RH  033%=      5-min Rain = 0
KKE1 151839Z 25001KT 14/M02 A3034 RMK A01 T01371023  RH  033%=      5-min Rain = 0
KKE1 151840Z 23003KT 14/M02 A3034 RMK A01 T01391024  RH  032%=      5-min Rain = 0
KKE1 151841Z 22003KT 14/M02 A3034 RMK A01 T01401024  RH  032%=      5-min Rain = 0
KKE1 151842Z 26001KT 14/M03 A3034 RMK A01 T01381025  RH  032%=      5-min Rain = 0
KKE1 151843Z 30003KT 14/M02 A3034 RMK A01 T01371022  RH  033%=      5-min Rain = 0
KKE1 151844Z 29006KT 14/M02 A3034 RMK A01 T01391020  RH  033%=      5-min Rain = 0
KKE1 151845Z 30006KT 14/M02 A3034 RMK A01 T01401019  RH  033%=      5-min Rain = 0
KKE1 151846Z 29004KT 14/M02 A3034 RMK A01 T01391021  RH  033%=      5-min Rain = 0
KKE1 151847Z 30002KT 14/M02 A3033 RMK A01 T01381019  RH  034%=      5-min Rain = 0
KKE1 151848Z 30001KT 14/M02 A3033 RMK A01 T01391020  RH  033%=      5-min Rain = 0
KKE1 151849Z 35002KT 14/M02 A3033 RMK A01 T01391022  RH  033%=      5-min Rain = 0
KKE1 151850Z 33000KT 14/M02 A3033 RMK A01 T01381021  RH  033%=      5-min Rain = 0
KKE1 151851Z 01001KT 14/M02 A3033 RMK A01 T01391020  RH  033%=      5-min Rain = 0
KKE1 151852Z 01003KT 14/M02 A3033 RMK A01 T01411021  RH  033%=      5-min Rain = 0
KKE1 151853Z 01001KT 14/M02 A3033 RMK A01 T01401022  RH  033%=      5-min Rain = 0
KKE1 151854Z 06002KT 14/M02 A3033 RMK A01 T01391022  RH  033%=      5-min Rain = 0
KKE1 151855Z 35000KT 14/M02 A3033 RMK A01 T01391022  RH  033%=      5-min Rain = 0
KKE1 151856Z 31004KT 14/M02 A3033 RMK A01 T01391020  RH  033%=      5-min Rain = 0
KKE1 151857Z 30005KT 14/M02 A3033 RMK A01 T01391020  RH  033%=      5-min Rain = 0
KKE1 151858Z 29005KT 14/M02 A3033 RMK A01 T01401021  RH  033%=      5-min Rain = 0
KKE1 151859Z 32003KT 14/M02 A3032 RMK A01 T01371022  RH  033%=      5-min Rain = 0
KKE1 151900Z 32003KT 14/M02 A3032 RMK A01 T01371021  RH  033%=      5-min Rain = 0
KKE1 151901Z 30002KT 14/M02 A3032 RMK A01 T01381020  RH  034%=      5-min Rain = 0
KKE1 151902Z 30003KT 14/M02 A3032 RMK A01 T01391020  RH  033%=      5-min Rain = 0
KKE1 151903Z 31003KT 14/M02 A3032 RMK A01 T01401016  RH  034%=      5-min Rain = 0
KKE1 151904Z 29001KT 15/M01 A3032 RMK A01 T01451012  RH  034%=      5-min Rain = 0
KKE1 151905Z 33001KT 15/M02 A3032 RMK A01 T01481017  RH  032%=      5-min Rain = 0
KKE1 151906Z 20000KT 15/M02 A3032 RMK A01 T01481018  RH  032%=      5-min Rain = 0
KKE1 151907Z 04000KT 15/M02 A3032 RMK A01 T01501018  RH  032%=      5-min Rain = 0
KKE1 151908Z 03002KT 15/M02 A3032 RMK A01 T01501019  RH  031%=      5-min Rain = 0
KKE1 151909Z 02003KT 15/M02 A3032 RMK A01 T01501017  RH  032%=      5-min Rain = 0
KKE1 151910Z 02003KT 15/M02 A3031 RMK A01 T01491019  RH  031%=      5-min Rain = 0
KKE1 151911Z 05003KT 15/M02 A3031 RMK A01 T01481019  RH  032%=      5-min Rain = 0
KKE1 151912Z 07003KT 15/M02 A3031 RMK A01 T01461020  RH  032%=      5-min Rain = 0
KKE1 151913Z 06003KT 14/M02 A3031 RMK A01 T01431021  RH  032%=      5-min Rain = 0
KKE1 151914Z 05002KT 14/M02 A3031 RMK A01 T01431019  RH  033%=      5-min Rain = 0
KKE1 151915Z 02003KT 14/M02 A3031 RMK A01 T01431019  RH  033%=      5-min Rain = 0
KKE1 151916Z 04002KT 14/M02 A3031 RMK A01 T01441019  RH  032%=      5-min Rain = 0
KKE1 151917Z 36002KT 15/M02 A3031 RMK A01 T01451020  RH  032%=      5-min Rain = 0
KKE1 151918Z 29002KT 15/M02 A3031 RMK A01 T01451019  RH  032%=      5-min Rain = 0
KKE1 151919Z 31003KT 15/M02 A3031 RMK A01 T01461019  RH  032%=      5-min Rain = 0
KKE1 151920Z 32002KT 15/M02 A3031 RMK A01 T01461019  RH  032%=      5-min Rain = 0
KKE1 151921Z 32001KT 15/M02 A3031 RMK A01 T01461019  RH  032%=      5-min Rain = 0
KKE1 151922Z 34003KT 15/M02 A3031 RMK A01 T01461018  RH  032%=      5-min Rain = 0
KKE1 151923Z 33005KT 15/M02 A3031 RMK A01 T01471019  RH  032%=      5-min Rain = 0
KKE1 151924Z 28004KT 15/M02 A3031 RMK A01 T01461018  RH  032%=      5-min Rain = 0
KKE1 151925Z 25002KT 15/M02 A3031 RMK A01 T01451020  RH  032%=      5-min Rain = 0
KKE1 151926Z 26001KT 15/M02 A3031 RMK A01 T01451017  RH  033%=      5-min Rain = 0
KKE1 151927Z 11000KT 15/M02 A303 RMK A01 T01461018  RH  032%=      5-min Rain = 0
KKE1 151928Z 15002KT 15/M02 A303 RMK A01 T01451020  RH  032%=      5-min Rain = 0
KKE1 151929Z 34002KT 15/M02 A303 RMK A01 T01451019  RH  032%=      5-min Rain = 0
KKE1 151930Z 35005KT 15/M01 A303 RMK A01 T01481013  RH  033%=      5-min Rain = 0
KKE1 151931Z 35004KT 15/M02 A303 RMK A01 T01511016  RH  032%=      5-min Rain = 0
KKE1 151932Z 02004KT 15/M02 A303 RMK A01 T01511016  RH  032%=      5-min Rain = 0
KKE1 151933Z 00003KT 15/M02 A303 RMK A01 T01511017  RH  031%=      5-min Rain = 0
KKE1 151934Z 34001KT 15/M02 A303 RMK A01 T01511017  RH  031%=      5-min Rain = 0
KKE1 151935Z 36001KT 15/M02 A303 RMK A01 T01511017  RH  031%=      5-min Rain = 0
KKE1 151936Z 09001KT 15/M02 A303 RMK A01 T01521017  RH  031%=      5-min Rain = 0
KKE1 151937Z 11002KT 15/M02 A303 RMK A01 T01531017  RH  031%=      5-min Rain = 0
KKE1 151938Z 07003KT 15/M02 A303 RMK A01 T01541018  RH  031%=      5-min Rain = 0
KKE1 151939Z 06004KT 15/M02 A303 RMK A01 T01531018  RH  031%=      5-min Rain = 0
KKE1 151940Z 06003KT 15/M02 A303 RMK A01 T01521018  RH  031%=      5-min Rain = 0
KKE1 151941Z 06001KT 15/M02 A3029 RMK A01 T01521018  RH  031%=      5-min Rain = 0
KKE1 151942Z 06000KT 15/M02 A3029 RMK A01 T01511019  RH  031%=      5-min Rain = 0
KKE1 151943Z 30001KT 15/M02 A3029 RMK A01 T01521018  RH  031%=      5-min Rain = 0
KKE1 151944Z 31003KT 15/M02 A3029 RMK A01 T01531016  RH  031%=      5-min Rain = 0
KKE1 151945Z 31004KT 16/M02 A3029 RMK A01 T01551016  RH  031%=      5-min Rain = 0
KKE1 151946Z 31003KT 15/M02 A3029 RMK A01 T01541019  RH  030%=      5-min Rain = 0
KKE1 151947Z 33003KT 15/M02 A3029 RMK A01 T01511020  RH  031%=      5-min Rain = 0
KKE1 151948Z 02005KT 15/M02 A3029 RMK A01 T01511018  RH  031%=      5-min Rain = 0
KKE1 151949Z 03004KT 15/M02 A3029 RMK A01 T01541016  RH  031%=      5-min Rain = 0
KKE1 151950Z 07001KT 15/M02 A3029 RMK A01 T01531019  RH  030%=      5-min Rain = 0
KKE1 151951Z 04005KT 15/M02 A3029 RMK A01 T01531017  RH  031%=      5-min Rain = 0
KKE1 151952Z 05005KT 15/M02 A3029 RMK A01 T01531017  RH  031%=      5-min Rain = 0
KKE1 151953Z 04004KT 15/M02 A3028 RMK A01 T01511019  RH  031%=      5-min Rain = 0
KKE1 151954Z 06004KT 15/M02 A3028 RMK A01 T01501019  RH  031%=      5-min Rain = 0
KKE1 151955Z 08002KT 15/M02 A3028 RMK A01 T01501018  RH  031%=      5-min Rain = 0
KKE1 151956Z 08002KT 15/M02 A3028 RMK A01 T01501018  RH  031%=      5-min Rain = 0
KKE1 151957Z 08001KT 15/M02 A3028 RMK A01 T01511019  RH  031%=      5-min Rain = 0
KKE1 151958Z 06002KT 15/M02 A3028 RMK A01 T01511020  RH  031%=      5-min Rain = 0
KKE1 151959Z 07003KT 15/M02 A3028 RMK A01 T01521018  RH  031%=      5-min Rain = 0
KKE1 152000Z 08002KT 15/M02 A3028 RMK A01 T01521019  RH  031%=      5-min Rain = 0
KKE1 152001Z 08004KT 15/M02 A3028 RMK A01 T01521018  RH  031%=      5-min Rain = 0
KKE1 152002Z 09004KT 15/M02 A3028 RMK A01 T01531017  RH  031%=      5-min Rain = 0
KKE1 152003Z 11003KT 15/M02 A3028 RMK A01 T01531017  RH  031%=      5-min Rain = 0
KKE1 152004Z 10003KT 15/M02 A3028 RMK A01 T01541018  RH  031%=      5-min Rain = 0
KKE1 152005Z 09004KT 15/M02 A3028 RMK A01 T01541017  RH  031%=      5-min Rain = 0
KKE1 152006Z 08005KT 16/M02 A3028 RMK A01 T01571016  RH  031%=      5-min Rain = 0
KKE1 152007Z 11005KT 16/M02 A3028 RMK A01 T01571016  RH  030%=      5-min Rain = 0
KKE1 152008Z 11004KT 16/M02 A3028 RMK A01 T01581017  RH  030%=      5-min Rain = 0
KKE1 152009Z 08001KT 16/M02 A3028 RMK A01 T01561019  RH  030%=      5-min Rain = 0
KKE1 152010Z 17001KT 16/M02 A3027 RMK A01 T01561017  RH  030%=      5-min Rain = 0
KKE1 152011Z 14000KT 16/M02 A3027 RMK A01 T01561018  RH  030%=      5-min Rain = 0
KKE1 152012Z 14000KT 16/M02 A3027 RMK A01 T01581017  RH  030%=      5-min Rain = 0
KKE1 152013Z 01001KT 16/M02 A3027 RMK A01 T01601016  RH  030%=      5-min Rain = 0
KKE1 152014Z 03002KT 16/M02 A3027 RMK A01 T01601019  RH  029%=      5-min Rain = 0
KKE1 152015Z 10003KT 16/M02 A3027 RMK A01 T01581018  RH  030%=      5-min Rain = 0
KKE1 152016Z 09005KT 16/M02 A3027 RMK A01 T01601016  RH  030%=      5-min Rain = 0
KKE1 152017Z 09004KT 16/M02 A3027 RMK A01 T01611016  RH  030%=      5-min Rain = 0
KKE1 152018Z 09003KT 16/M02 A3027 RMK A01 T01601018  RH  029%=      5-min Rain = 0
KKE1 152019Z 11002KT 16/M02 A3027 RMK A01 T01591017  RH  030%=      5-min Rain = 0
KKE1 152020Z 15001KT 16/M02 A3027 RMK A01 T01591018  RH  030%=      5-min Rain = 0
KKE1 152021Z 16001KT 16/M02 A3027 RMK A01 T01591018  RH  030%=      5-min Rain = 0
KKE1 152022Z 06002KT 16/M02 A3027 RMK A01 T01601018  RH  030%=      5-min Rain = 0
KKE1 152023Z 07003KT 16/M02 A3027 RMK A01 T01601016  RH  030%=      5-min Rain = 0
KKE1 152024Z 07004KT 16/M02 A3027 RMK A01 T01621015  RH  030%=      5-min Rain = 0
KKE1 152025Z 01003KT 16/M02 A3026 RMK A01 T01621015  RH  030%=      5-min Rain = 0
KKE1 152026Z 04002KT 16/M02 A3026 RMK A01 T01621016  RH  029%=      5-min Rain = 0
KKE1 152027Z 08001KT 16/M02 A3026 RMK A01 T01621016  RH  030%=      5-min Rain = 0
KKE1 152028Z 12003KT 16/M02 A3026 RMK A01 T01631015  RH  029%=      5-min Rain = 0
KKE1 152029Z 09002KT 16/M02 A3026 RMK A01 T01631018  RH  029%=      5-min Rain = 0
KKE1 152030Z 07003KT 16/M02 A3026 RMK A01 T01621016  RH  029%=      5-min Rain = 0
KKE1 152031Z 04004KT 16/M02 A3026 RMK A01 T01631016  RH  029%=      5-min Rain = 0
KKE1 152032Z 05005KT 16/M02 A3026 RMK A01 T01631016  RH  029%=      5-min Rain = 0
KKE1 152033Z 04005KT 16/M02 A3026 RMK A01 T01631015  RH  029%=      5-min Rain = 0
KKE1 152034Z 06004KT 16/M01 A3026 RMK A01 T01641014  RH  030%=      5-min Rain = 0
KKE1 152035Z 06004KT 17/M01 A3026 RMK A01 T01661014  RH  029%=      5-min Rain = 0
KKE1 152036Z 07003KT 17/M02 A3026 RMK A01 T01661016  RH  029%=      5-min Rain = 0
KKE1 152037Z 11003KT 17/M02 A3026 RMK A01 T01651016  RH  029%=      5-min Rain = 0
KKE1 152038Z 10003KT 16/M02 A3026 RMK A01 T01641016  RH  029%=      5-min Rain = 0
KKE1 152039Z 07004KT 17/M01 A3026 RMK A01 T01661014  RH  029%=      5-min Rain = 0
KKE1 152040Z 07004KT 17/M02 A3026 RMK A01 T01681015  RH  029%=      5-min Rain = 0
KKE1 152041Z 05003KT 17/M02 A3026 RMK A01 T01661017  RH  029%=      5-min Rain = 0
KKE1 152042Z 06004KT 16/M02 A3026 RMK A01 T01641016  RH  029%=      5-min Rain = 0
KKE1 152043Z 06003KT 16/M02 A3026 RMK A01 T01641017  RH  029%=      5-min Rain = 0
KKE1 152044Z 06005KT 16/M01 A3026 RMK A01 T01641014  RH  030%=      5-min Rain = 0
KKE1 152045Z 09004KT 17/M02 A3026 RMK A01 T01651016  RH  029%=      5-min Rain = 0
KKE1 152046Z 11004KT 16/M02 A3026 RMK A01 T01641016  RH  029%=      5-min Rain = 0
KKE1 152047Z 12005KT 16/M02 A3026 RMK A01 T01631015  RH  029%=      5-min Rain = 0
KKE1 152048Z 08005KT 17/M01 A3026 RMK A01 T01651012  RH  030%=      5-min Rain = 0
KKE1 152049Z 07007KT 17/M01 A3026 RMK A01 T01681013  RH  029%=      5-min Rain = 0
KKE1 152050Z 08006KT 17/M02 A3026 RMK A01 T01661015  RH  029%=      5-min Rain = 0
KKE1 152051Z 08005KT 16/M01 A3026 RMK A01 T01631014  RH  030%=      5-min Rain = 0
KKE1 152052Z 09005KT 16/M01 A3026 RMK A01 T01641013  RH  030%=      5-min Rain = 0
KKE1 152053Z 08006KT 16/M01 A3026 RMK A01 T01641013  RH  030%=      5-min Rain = 0
KKE1 152054Z 08004KT 16/M02 A3026 RMK A01 T01641015  RH  030%=      5-min Rain = 0
KKE1 152055Z 10005KT 16/M01 A3026 RMK A01 T01631014  RH  030%=      5-min Rain = 0
KKE1 152056Z 07006KT 16/M01 A3026 RMK A01 T01631013  RH  030%=      5-min Rain = 0
KKE1 152057Z 07006KT 17/M01 A3026 RMK A01 T01651014  RH  030%=      5-min Rain = 0
KKE1 152058Z 08005KT 17/M01 A3026 RMK A01 T01651013  RH  030%=      5-min Rain = 0
KKE1 152059Z 10005KT 17/M01 A3026 RMK A01 T01651014  RH  029%=      5-min Rain = 0
KKE1 152100Z 11003KT 16/M02 A3026 RMK A01 T01641015  RH  029%=      5-min Rain = 0
KKE1 152101Z 11002KT 16/M01 A3026 RMK A01 T01631014  RH  030%=      5-min Rain = 0
KKE1 152102Z 09005KT 16/M01 A3026 RMK A01 T01641014  RH  030%=      5-min Rain = 0
KKE1 152103Z 10006KT 16/M01 A3025 RMK A01 T01641013  RH  030%=      5-min Rain = 0
KKE1 152104Z 10007KT 17/M01 A3025 RMK A01 T01651014  RH  030%=      5-min Rain = 0
KKE1 152105Z 09005KT 16/M02 A3025 RMK A01 T01631015  RH  030%=      5-min Rain = 0
KKE1 152106Z 10005KT 16/M02 A3025 RMK A01 T01611015  RH  030%=      5-min Rain = 0
KKE1 152107Z 06006KT 16/M01 A3025 RMK A01 T01631012  RH  030%=      5-min Rain = 0
KKE1 152108Z 06006KT 17/M01 A3025 RMK A01 T01651013  RH  030%=      5-min Rain = 0
KKE1 152109Z 05005KT 17/M01 A3025 RMK A01 T01651014  RH  029%=      5-min Rain = 0
KKE1 152110Z 07004KT 16/M02 A3025 RMK A01 T01641015  RH  029%=      5-min Rain = 0
KKE1 152111Z 02004KT 16/M01 A3025 RMK A01 T01631014  RH  030%=      5-min Rain = 0
KKE1 152112Z 02002KT 16/M02 A3025 RMK A01 T01631015  RH  030%=      5-min Rain = 0
KKE1 152113Z 07003KT 16/M01 A3025 RMK A01 T01631013  RH  030%=      5-min Rain = 0
KKE1 152114Z 10004KT 16/M02 A3025 RMK A01 T01641015  RH  029%=      5-min Rain = 0
KKE1 152115Z 11006KT 16/M01 A3025 RMK A01 T01641013  RH  030%=      5-min Rain = 0
KKE1 152116Z 11005KT 17/M01 A3025 RMK A01 T01651014  RH  030%=      5-min Rain = 0
KKE1 152117Z 10006KT 17/M01 A3025 RMK A01 T01651014  RH  029%=      5-min Rain = 0
KKE1 152118Z 09006KT 16/M02 A3025 RMK A01 T01641015  RH  029%=      5-min Rain = 0
KKE1 152119Z 09005KT 16/M02 A3025 RMK A01 T01621016  RH  030%=      5-min Rain = 0
KKE1 152120Z 10005KT 16/M02 A3025 RMK A01 T01601016  RH  030%=      5-min Rain = 0
KKE1 152121Z 11005KT 16/M01 A3025 RMK A01 T01611013  RH  030%=      5-min Rain = 0
KKE1 152122Z 12004KT 16/M02 A3025 RMK A01 T01631015  RH  030%=      5-min Rain = 0
KKE1 152123Z 08005KT 16/M01 A3025 RMK A01 T01631014  RH  030%=      5-min Rain = 0
KKE1 152124Z 07006KT 17/M01 A3025 RMK A01 T01651013  RH  030%=      5-min Rain = 0
KKE1 152125Z 08006KT 16/M01 A3025 RMK A01 T01641014  RH  030%=      5-min Rain = 0
KKE1 152126Z 10005KT 16/M02 A3025 RMK A01 T01621015  RH  030%=      5-min Rain = 0
KKE1 152127Z 08006KT 16/M01 A3025 RMK A01 T01621014  RH  030%=      5-min Rain = 0
KKE1 152128Z 08005KT 16/M02 A3025 RMK A01 T01621015  RH  030%=      5-min Rain = 0
KKE1 152129Z 09005KT 16/M01 A3025 RMK A01 T01631013  RH  030%=      5-min Rain = 0
KKE1 152130Z 08004KT 16/M01 A3025 RMK A01 T01641014  RH  030%=      5-min Rain = 0
KKE1 152131Z 07005KT 16/M01 A3025 RMK A01 T01641014  RH  030%=      5-min Rain = 0
KKE1 152132Z 06005KT 16/M02 A3025 RMK A01 T01631015  RH  030%=      5-min Rain = 0
KKE1 152133Z 06005KT 16/M02 A3025 RMK A01 T01621015  RH  030%=      5-min Rain = 0
KKE1 152134Z 11008KT 16/M01 A3025 RMK A01 T01641012  RH  030%=      5-min Rain = 0
KKE1 152135Z 10005KT 17/M01 A3025 RMK A01 T01661014  RH  029%=      5-min Rain = 0
KKE1 152136Z 11005KT 17/M01 A3025 RMK A01 T01661013  RH  029%=      5-min Rain = 0
KKE1 152137Z 11004KT 17/M01 A3025 RMK A01 T01661014  RH  029%=      5-min Rain = 0
KKE1 152138Z 07004KT 17/M01 A3025 RMK A01 T01651014  RH  029%=      5-min Rain = 0
KKE1 152139Z 03003KT 17/M01 A3024 RMK A01 T01651014  RH  030%=      5-min Rain = 0
KKE1 152140Z 08004KT 17/M01 A3024 RMK A01 T01651013  RH  030%=      5-min Rain = 0
KKE1 152141Z 06006KT 17/M01 A3025 RMK A01 T01651014  RH  029%=      5-min Rain = 0
KKE1 152142Z 07005KT 17/M01 A3024 RMK A01 T01651014  RH  030%=      5-min Rain = 0
KKE1 152143Z 07005KT 17/M01 A3024 RMK A01 T01651013  RH  030%=      5-min Rain = 0
KKE1 152144Z 06005KT 17/M01 A3024 RMK A01 T01651013  RH  029%=      5-min Rain = 0
KKE1 152145Z 06006KT 17/M01 A3024 RMK A01 T01651013  RH  030%=      5-min Rain = 0
KKE1 152146Z 07005KT 17/M01 A3024 RMK A01 T01651014  RH  029%=      5-min Rain = 0
KKE1 152147Z 07006KT 16/M01 A3025 RMK A01 T01641014  RH  030%=      5-min Rain = 0
KKE1 152148Z 08005KT 16/M02 A3025 RMK A01 T01641015  RH  029%=      5-min Rain = 0
KKE1 152149Z 10005KT 16/M01 A3025 RMK A01 T01631014  RH  030%=      5-min Rain = 0
KKE1 152150Z 10003KT 16/M02 A3024 RMK A01 T01631015  RH  030%=      5-min Rain = 0
KKE1 152151Z 12005KT 16/M01 A3024 RMK A01 T01631014  RH  030%=      5-min Rain = 0
KKE1 152152Z 12008KT 16/M01 A3024 RMK A01 T01641014  RH  030%=      5-min Rain = 0
KKE1 152153Z 13006KT 16/M02 A3024 RMK A01 T01641015  RH  029%=      5-min Rain = 0
KKE1 152154Z 14004KT 16/M02 A3024 RMK A01 T01641015  RH  029%=      5-min Rain = 0
KKE1 152155Z 11004KT 17/M01 A3024 RMK A01 T01651014  RH  029%=      5-min Rain = 0
KKE1 152156Z 09004KT 17/M01 A3024 RMK A01 T01661013  RH  029%=      5-min Rain = 0
KKE1 152157Z 09005KT 17/M01 A3024 RMK A01 T01661014  RH  029%=      5-min Rain = 0
KKE1 152158Z 09006KT 17/M01 A3024 RMK A01 T01661014  RH  029%=      5-min Rain = 0
KKE1 152159Z 08005KT 17/M02 A3024 RMK A01 T01651015  RH  029%=      5-min Rain = 0
KKE1 152200Z 09004KT 16/M02 A3024 RMK A01 T01641015  RH  029%=      5-min Rain = 0
KKE1 152201Z 10003KT 16/M02 A3024 RMK A01 T01631015  RH  030%=      5-min Rain = 0
KKE1 152202Z 15003KT 16/M02 A3024 RMK A01 T01621015  RH  030%=      5-min Rain = 0
KKE1 152203Z 15003KT 16/M01 A3024 RMK A01 T01641014  RH  030%=      5-min Rain = 0
KKE1 152204Z 15002KT 17/M02 A3024 RMK A01 T01661015  RH  029%=      5-min Rain = 0
KKE1 152205Z 12004KT 17/M01 A3024 RMK A01 T01671014  RH  029%=      5-min Rain = 0
KKE1 152206Z 12004KT 17/M01 A3024 RMK A01 T01671014  RH  029%=      5-min Rain = 0
KKE1 152207Z 12003KT 17/M01 A3024 RMK A01 T01671014  RH  029%=      5-min Rain = 0
KKE1 152208Z 12003KT 17/M01 A3024 RMK A01 T01671013  RH  029%=      5-min Rain = 0
KKE1 152209Z 11005KT 17/M01 A3024 RMK A01 T01681013  RH  029%=      5-min Rain = 0
KKE1 152210Z 11006KT 17/M02 A3024 RMK A01 T01681015  RH  029%=      5-min Rain = 0
KKE1 152211Z 12006KT 17/M02 A3024 RMK A01 T01651016  RH  029%=      5-min Rain = 0
KKE1 152212Z 12004KT 16/M02 A3024 RMK A01 T01631016  RH  029%=      5-min Rain = 0
KKE1 152213Z 12002KT 16/M02 A3024 RMK A01 T01631016  RH  029%=      5-min Rain = 0
KKE1 152214Z 09002KT 16/M02 A3024 RMK A01 T01631015  RH  030%=      5-min Rain = 0
KKE1 152215Z 08004KT 16/M01 A3024 RMK A01 T01641014  RH  030%=      5-min Rain = 0
KKE1 152216Z 08005KT 17/M01 A3024 RMK A01 T01651013  RH  030%=      5-min Rain = 0
KKE1 152217Z 11005KT 17/M01 A3024 RMK A01 T01661014  RH  029%=      5-min Rain = 0
KKE1 152218Z 11005KT 17/M02 A3024 RMK A01 T01651015  RH  029%=      5-min Rain = 0
KKE1 152219Z 10005KT 16/M01 A3024 RMK A01 T01631014  RH  030%=      5-min Rain = 0
KKE1 152220Z 10004KT 16/M01 A3024 RMK A01 T01641013  RH  030%=      5-min Rain = 0
KKE1 152221Z 08004KT 17/M01 A3024 RMK A01 T01651014  RH  030%=      5-min Rain = 0
KKE1 152222Z 07004KT 17/M01 A3023 RMK A01 T01651014  RH  029%=      5-min Rain = 0
KKE1 152223Z 08005KT 17/M01 A3023 RMK A01 T01651014  RH  029%=      5-min Rain = 0
KKE1 152224Z 09005KT 17/M01 A3023 RMK A01 T01651014  RH  029%=      5-min Rain = 0
KKE1 152225Z 09005KT 17/M01 A3023 RMK A01 T01651014  RH  030%=      5-min Rain = 0
KKE1 152226Z 08005KT 16/M01 A3023 RMK A01 T01641014  RH  030%=      5-min Rain = 0
KKE1 152227Z 08004KT 16/M01 A3023 RMK A01 T01641014  RH  030%=      5-min Rain = 0
KKE1 152228Z 08005KT 16/M02 A3023 RMK A01 T01631015  RH  030%=      5-min Rain = 0
KKE1 152229Z 06004KT 16/M01 A3023 RMK A01 T01631014  RH  030%=      5-min Rain = 0
KKE1 152230Z 08004KT 16/M02 A3023 RMK A01 T01621015  RH  030%=      5-min Rain = 0
KKE1 152231Z 10005KT 16/M01 A3023 RMK A01 T01631013  RH  030%=      5-min Rain = 0
KKE1 152232Z 12003KT 16/M01 A3023 RMK A01 T01641013  RH  030%=      5-min Rain = 0
KKE1 152233Z 11002KT 16/M01 A3023 RMK A01 T01641014  RH  030%=      5-min Rain = 0
KKE1 152234Z 12001KT 17/M01 A3023 RMK A01 T01651014  RH  030%=      5-min Rain = 0
KKE1 152235Z 13002KT 17/M01 A3023 RMK A01 T01661013  RH  030%=      5-min Rain = 0
KKE1 152236Z 12003KT 17/M01 A3023 RMK A01 T01671013  RH  029%=      5-min Rain = 0
KKE1 152237Z 11003KT 17/M01 A3023 RMK A01 T01681013  RH  029%=      5-min Rain = 0
KKE1 152238Z 10004KT 17/M01 A3023 RMK A01 T01671013  RH  029%=      5-min Rain = 0
KKE1 152239Z 11004KT 17/M01 A3023 RMK A01 T01661013  RH  029%=      5-min Rain = 0
KKE1 152240Z 13004KT 17/M01 A3023 RMK A01 T01661013  RH  029%=      5-min Rain = 0
KKE1 152241Z 13003KT 17/M01 A3023 RMK A01 T01661013  RH  029%=      5-min Rain = 0
KKE1 152242Z 12004KT 17/M01 A3023 RMK A01 T01651014  RH  029%=      5-min Rain = 0
KKE1 152243Z 12002KT 17/M01 A3023 RMK A01 T01661013  RH  029%=      5-min Rain = 0
KKE1 152244Z 10004KT 17/M01 A3023 RMK A01 T01661013  RH  029%=      5-min Rain = 0
KKE1 152245Z 08003KT 17/M01 A3023 RMK A01 T01651014  RH  029%=      5-min Rain = 0
KKE1 152246Z 10004KT 16/M01 A3023 RMK A01 T01641014  RH  030%=      5-min Rain = 0
KKE1 152247Z 12004KT 16/M01 A3023 RMK A01 T01641013  RH  030%=      5-min Rain = 0
KKE1 152248Z 10003KT 16/M01 A3023 RMK A01 T01641013  RH  030%=      5-min Rain = 0
KKE1 152249Z 11003KT 16/M01 A3023 RMK A01 T01641013  RH  030%=      5-min Rain = 0
KKE1 152250Z 10004KT 16/M01 A3023 RMK A01 T01641014  RH  030%=      5-min Rain = 0
KKE1 152251Z 12004KT 16/M01 A3023 RMK A01 T01641012  RH  030%=      5-min Rain = 0
KKE1 152252Z 13005KT 17/M01 A3023 RMK A01 T01651012  RH  030%=      5-min Rain = 0
KKE1 152253Z 14006KT 17/M01 A3023 RMK A01 T01661012  RH  030%=      5-min Rain = 0
KKE1 152254Z 15005KT 17/M01 A3023 RMK A01 T01661013  RH  030%=      5-min Rain = 0
KKE1 152255Z 14005KT 17/M01 A3023 RMK A01 T01661013  RH  030%=      5-min Rain = 0
KKE1 152256Z 14004KT 17/M01 A3023 RMK A01 T01651013  RH  030%=      5-min Rain = 0
KKE1 152257Z 12004KT 17/M01 A3023 RMK A01 T01651011  RH  030%=      5-min Rain = 0
KKE1 152258Z 12005KT 17/M01 A3023 RMK A01 T01651012  RH  030%=      5-min Rain = 0
KKE1 152259Z 12005KT 17/M01 A3023 RMK A01 T01651013  RH  030%=      5-min Rain = 0
KKE1 152300Z 11006KT 16/M01 A3023 RMK A01 T01631013  RH  030%=      5-min Rain = 0
KKE1 152301Z 11006KT 16/M01 A3023 RMK A01 T01621012  RH  030%=      5-min Rain = 0
KKE1 152302Z 12007KT 16/M01 A3023 RMK A01 T01621012  RH  030%=      5-min Rain = 0
KKE1 152303Z 11007KT 16/M01 A3023 RMK A01 T01621012  RH  031%=      5-min Rain = 0
KKE1 152304Z 12007KT 16/M01 A3023 RMK A01 T01611012  RH  031%=      5-min Rain = 0
KKE1 152305Z 12007KT 16/M01 A3023 RMK A01 T01611012  RH  031%=      5-min Rain = 0
KKE1 152306Z 12007KT 16/M01 A3023 RMK A01 T01601013  RH  031%=      5-min Rain = 0
KKE1 152307Z 11007KT 16/M01 A3023 RMK A01 T01591013  RH  031%=      5-min Rain = 0
KKE1 152308Z 11006KT 16/M01 A3023 RMK A01 T01581013  RH  031%=      5-min Rain = 0
KKE1 152309Z 11006KT 16/M01 A3023 RMK A01 T01581011  RH  031%=      5-min Rain = 0
KKE1 152310Z 11005KT 16/M01 A3023 RMK A01 T01581012  RH  031%=      5-min Rain = 0
KKE1 152311Z 10007KT 16/M01 A3023 RMK A01 T01581012  RH  031%=      5-min Rain = 0
KKE1 152312Z 11006KT 16/M01 A3023 RMK A01 T01581011  RH  032%=      5-min Rain = 0
KKE1 152313Z 10007KT 16/M01 A3023 RMK A01 T01571012  RH  031%=      5-min Rain = 0
KKE1 152314Z 10006KT 16/M01 A3023 RMK A01 T01581011  RH  031%=      5-min Rain = 0
KKE1 152315Z 11007KT 16/M01 A3023 RMK A01 T01581011  RH  032%=      5-min Rain = 0
KKE1 152316Z 11007KT 16/M01 A3023 RMK A01 T01571011  RH  032%=      5-min Rain = 0
KKE1 152317Z 10007KT 16/M01 A3023 RMK A01 T01571011  RH  032%=      5-min Rain = 0
KKE1 152318Z 11005KT 16/M01 A3023 RMK A01 T01561011  RH  032%=      5-min Rain = 0
KKE1 152319Z 11007KT 16/M01 A3023 RMK A01 T01561011  RH  032%=      5-min Rain = 0
KKE1 152320Z 11008KT 16/M01 A3023 RMK A01 T01561011  RH  032%=      5-min Rain = 0
KKE1 152321Z 11007KT 16/M01 A3023 RMK A01 T01561011  RH  032%=      5-min Rain = 0
KKE1 152322Z 11007KT 16/M01 A3023 RMK A01 T01551011  RH  032%=      5-min Rain = 0
KKE1 152323Z 11008KT 16/M01 A3023 RMK A01 T01551010  RH  032%=      5-min Rain = 0
KKE1 152324Z 11008KT 15/M01 A3023 RMK A01 T01541011  RH  032%=      5-min Rain = 0
KKE1 152325Z 11007KT 15/M01 A3023 RMK A01 T01541010  RH  032%=      5-min Rain = 0
KKE1 152326Z 11006KT 15/M01 A3023 RMK A01 T01531010  RH  033%=      5-min Rain = 0
KKE1 152327Z 11007KT 15/M01 A3023 RMK A01 T01531010  RH  033%=      5-min Rain = 0
KKE1 152328Z 11006KT 15/M01 A3023 RMK A01 T01531010  RH  033%=      5-min Rain = 0
KKE1 152329Z 11007KT 15/M01 A3023 RMK A01 T01521010  RH  033%=      5-min Rain = 0
KKE1 152330Z 11006KT 15/M01 A3023 RMK A01 T01521010  RH  033%=      5-min Rain = 0
KKE1 152331Z 11004KT 15/M01 A3023 RMK A01 T01521009  RH  033%=      5-min Rain = 0
KKE1 152332Z 12005KT 15/M01 A3023 RMK A01 T01521009  RH  033%=      5-min Rain = 0
KKE1 152333Z 11003KT 15/M01 A3023 RMK A01 T01521008  RH  033%=      5-min Rain = 0
KKE1 152334Z 11004KT 15/M01 A3023 RMK A01 T01521008  RH  033%=      5-min Rain = 0
KKE1 152335Z 12005KT 15/M01 A3023 RMK A01 T01511008  RH  034%=      5-min Rain = 0
KKE1 152336Z 11005KT 15/M01 A3023 RMK A01 T01511008  RH  034%=      5-min Rain = 0
KKE1 152337Z 12005KT 15/M01 A3023 RMK A01 T01501008  RH  034%=      5-min Rain = 0
KKE1 152338Z 12006KT 15/M01 A3023 RMK A01 T01501007  RH  034%=      5-min Rain = 0
KKE1 152339Z 11006KT 15/M01 A3023 RMK A01 T01491008  RH  034%=      5-min Rain = 0
KKE1 152340Z 11005KT 15/M01 A3023 RMK A01 T01491008  RH  034%=      5-min Rain = 0
KKE1 152341Z 12005KT 15/M01 A3023 RMK A01 T01491007  RH  034%=      5-min Rain = 0
KKE1 152342Z 12004KT 15/M01 A3023 RMK A01 T01481008  RH  034%=      5-min Rain = 0
KKE1 152343Z 12005KT 15/M01 A3023 RMK A01 T01481007  RH  034%=      5-min Rain = 0
KKE1 152344Z 12004KT 15/M01 A3023 RMK A01 T01471007  RH  035%=      5-min Rain = 0
KKE1 152345Z 12005KT 15/M01 A3023 RMK A01 T01471007  RH  035%=      5-min Rain = 0
KKE1 152346Z 11004KT 15/M01 A3023 RMK A01 T01461007  RH  035%=      5-min Rain = 0
KKE1 152347Z 12004KT 15/M01 A3023 RMK A01 T01451007  RH  035%=      5-min Rain = 0
KKE1 152348Z 12005KT 14/M01 A3023 RMK A01 T01441007  RH  035%=      5-min Rain = 0
KKE1 152349Z 12005KT 14/M01 A3023 RMK A01 T01441006  RH  036%=      5-min Rain = 0
KKE1 152350Z 12005KT 14/M01 A3023 RMK A01 T01431006  RH  036%=      5-min Rain = 0
KKE1 152351Z 13005KT 14/M01 A3023 RMK A01 T01421006  RH  036%=      5-min Rain = 0
KKE1 152352Z 13005KT 14/M01 A3023 RMK A01 T01411005  RH  037%=      5-min Rain = 0
KKE1 152353Z 13004KT 14/M01 A3023 RMK A01 T01401005  RH  037%=      5-min Rain = 0
KKE1 152354Z 12004KT 14/M01 A3023 RMK A01 T01401005  RH  037%=      5-min Rain = 0
KKE1 152355Z 13004KT 14/M01 A3023 RMK A01 T01391005  RH  037%=      5-min Rain = 0
KKE1 152356Z 13003KT 14/M01 A3023 RMK A01 T01381005  RH  037%=      5-min Rain = 0
KKE1 152357Z 13003KT 14/M00 A3023 RMK A01 T01371004  RH  038%=      5-min Rain = 0
KKE1 152358Z 14003KT 14/M00 A3023 RMK A01 T01361004  RH  038%=      5-min Rain = 0
KKE1 152359Z 13003KT 14/M00 A3023 RMK A01 T01351004  RH  038%=      5-min Rain = 0
KKE1 160000Z 13004KT 13/M00 A3023 RMK A01 T01331004  RH  039%=      5-min Rain = 0
KKE1 160001Z 13004KT 13/M00 A3023 RMK A01 T01321004  RH  039%=      5-min Rain = 0
KKE1 160002Z 13005KT 13/M00 A3023 RMK A01 T01321004  RH  039%=      5-min Rain = 0
KKE1 160003Z 13005KT 13/M00 A3023 RMK A01 T01311003  RH  040%=      5-min Rain = 0
KKE1 160004Z 13004KT 13/M00 A3023 RMK A01 T01311003  RH  040%=      5-min Rain = 0
KKE1 160005Z 13005KT 13/M00 A3023 RMK A01 T01301003  RH  040%=      5-min Rain = 0
KKE1 160006Z 13005KT 13/M00 A3023 RMK A01 T01291003  RH  040%=      5-min Rain = 0
KKE1 160007Z 13005KT 13/M00 A3023 RMK A01 T01281003  RH  040%=      5-min Rain = 0
KKE1 160008Z 13004KT 13/M00 A3023 RMK A01 T01281003  RH  041%=      5-min Rain = 0
KKE1 160009Z 13004KT 13/M00 A3023 RMK A01 T01271003  RH  041%=      5-min Rain = 0
KKE1 160010Z 13005KT 13/M00 A3023 RMK A01 T01261003  RH  041%=      5-min Rain = 0
KKE1 160011Z 13005KT 13/M00 A3023 RMK A01 T01261003  RH  041%=      5-min Rain = 0
KKE1 160012Z 12004KT 13/M00 A3023 RMK A01 T01251003  RH  042%=      5-min Rain = 0
KKE1 160013Z 11004KT 12/M00 A3023 RMK A01 T01241002  RH  042%=      5-min Rain = 0
KKE1 160014Z 11004KT 12/M00 A3023 RMK A01 T01241003  RH  042%=      5-min Rain = 0
KKE1 160015Z 11004KT 12/M00 A3023 RMK A01 T01241003  RH  042%=      5-min Rain = 0
KKE1 160016Z 12005KT 12/M00 A3023 RMK A01 T01231002  RH  042%=      5-min Rain = 0
KKE1 160017Z 12006KT 12/M00 A3023 RMK A01 T01221002  RH  042%=      5-min Rain = 0
KKE1 160018Z 12006KT 12/M00 A3023 RMK A01 T01211002  RH  043%=      5-min Rain = 0
KKE1 160019Z 13006KT 12/M00 A3023 RMK A01 T01211002  RH  043%=      5-min Rain = 0
KKE1 160020Z 13005KT 12/M00 A3023 RMK A01 T01211001  RH  043%=      5-min Rain = 0
KKE1 160021Z 12005KT 12/M00 A3023 RMK A01 T01211001  RH  043%=      5-min Rain = 0
KKE1 160022Z 13005KT 12/M00 A3023 RMK A01 T01211001  RH  043%=      5-min Rain = 0
KKE1 160023Z 13006KT 12/M00 A3023 RMK A01 T01201001  RH  043%=      5-min Rain = 0
KKE1 160024Z 13006KT 12/M00 A3023 RMK A01 T01201002  RH  043%=      5-min Rain = 0
KKE1 160025Z 12005KT 12/M00 A3023 RMK A01 T01211002  RH  043%=      5-min Rain = 0
KKE1 160026Z 12004KT 12/M00 A3023 RMK A01 T01221001  RH  042%=      5-min Rain = 0
KKE1 160027Z 12004KT 12/M00 A3023 RMK A01 T01231001  RH  042%=      5-min Rain = 0
KKE1 160028Z 12004KT 12/M00 A3023 RMK A01 T01221001  RH  042%=      5-min Rain = 0
KKE1 160029Z 12004KT 12/M00 A3023 RMK A01 T01221001  RH  043%=      5-min Rain = 0
KKE1 160030Z 12004KT 12/M00 A3023 RMK A01 T01211002  RH  043%=      5-min Rain = 0
KKE1 160031Z 11004KT 12/M00 A3023 RMK A01 T01211001  RH  043%=      5-min Rain = 0
KKE1 160032Z 11003KT 12/M00 A3023 RMK A01 T01201001  RH  043%=      5-min Rain = 0
KKE1 160033Z 12003KT 12/M00 A3023 RMK A01 T01181001  RH  044%=      5-min Rain = 0
KKE1 160034Z 12004KT 12/M00 A3023 RMK A01 T01181001  RH  044%=      5-min Rain = 0
KKE1 160035Z 12004KT 12/M00 A3023 RMK A01 T01181001  RH  044%=      5-min Rain = 0
KKE1 160036Z 12004KT 12/M00 A3023 RMK A01 T01171001  RH  044%=      5-min Rain = 0
KKE1 160037Z 12003KT 12/M00 A3023 RMK A01 T01161001  RH  045%=      5-min Rain = 0
KKE1 160038Z 11005KT 12/M00 A3023 RMK A01 T01151001  RH  045%=      5-min Rain = 0
KKE1 160039Z 11004KT 12/M00 A3023 RMK A01 T01151001  RH  045%=      5-min Rain = 0
KKE1 160040Z 10004KT 12/M00 A3023 RMK A01 T01151001  RH  045%=      5-min Rain = 0
KKE1 160041Z 11004KT 12/00 A3023 RMK A01 T011500-0  RH  045%=      5-min Rain = 0
KKE1 160042Z 11003KT 12/00 A3023 RMK A01 T011500-0  RH  045%=      5-min Rain = 0
KKE1 160043Z 12004KT 11/M00 A3023 RMK A01 T01141001  RH  045%=      5-min Rain = 0
KKE1 160044Z 12005KT 11/00 A3023 RMK A01 T011400-0  RH  045%=      5-min Rain = 0
KKE1 160045Z 13004KT 11/00 A3023 RMK A01 T011300-0  RH  045%=      5-min Rain = 0
KKE1 160046Z 13004KT 11/00 A3023 RMK A01 T011300-0  RH  046%=      5-min Rain = 0
KKE1 160047Z 13004KT 11/00 A3023 RMK A01 T01130000  RH  046%=      5-min Rain = 0
KKE1 160048Z 12004KT 12/00 A3023 RMK A01 T01150000  RH  045%=      5-min Rain = 0
KKE1 160049Z 13005KT 12/00 A3023 RMK A01 T01160000  RH  045%=      5-min Rain = 0
KKE1 160050Z 13006KT 12/00 A3023 RMK A01 T01160000  RH  045%=      5-min Rain = 0
KKE1 160051Z 13006KT 12/00 A3023 RMK A01 T01170000  RH  045%=      5-min Rain = 0
KKE1 160052Z 14006KT 12/00 A3023 RMK A01 T01180001  RH  044%=      5-min Rain = 0
KKE1 160053Z 13006KT 12/00 A3023 RMK A01 T01190001  RH  044%=      5-min Rain = 0
KKE1 160054Z 13007KT 12/00 A3023 RMK A01 T01190001  RH  044%=      5-min Rain = 0
KKE1 160055Z 14007KT 12/00 A3023 RMK A01 T01190001  RH  044%=      5-min Rain = 0
KKE1 160056Z 13007KT 12/00 A3023 RMK A01 T01190001  RH  044%=      5-min Rain = 0
KKE1 160057Z 13007KT 12/00 A3023 RMK A01 T01190001  RH  044%=      5-min Rain = 0
KKE1 160058Z 13007KT 12/00 A3023 RMK A01 T01190001  RH  044%=      5-min Rain = 0
KKE1 160059Z 13006KT 12/00 A3023 RMK A01 T01190001  RH  044%=      5-min Rain = 0
KKE1 160100Z 13006KT 12/00 A3023 RMK A01 T01180001  RH  044%=      5-min Rain = 0
KKE1 160101Z 13006KT 12/00 A3023 RMK A01 T01180001  RH  045%=      5-min Rain = 0
KKE1 160102Z 13006KT 12/00 A3023 RMK A01 T01170001  RH  045%=      5-min Rain = 0
KKE1 160103Z 13005KT 12/00 A3023 RMK A01 T01160001  RH  045%=      5-min Rain = 0
KKE1 160104Z 13006KT 12/00 A3023 RMK A01 T01160001  RH  045%=      5-min Rain = 0
KKE1 160105Z 13006KT 12/00 A3023 RMK A01 T01160002  RH  045%=      5-min Rain = 0
KKE1 160106Z 14006KT 12/00 A3023 RMK A01 T01150001  RH  045%=      5-min Rain = 0
KKE1 160107Z 13007KT 12/00 A3023 RMK A01 T01150002  RH  046%=      5-min Rain = 0
KKE1 160108Z 14007KT 12/00 A3024 RMK A01 T01150001  RH  046%=      5-min Rain = 0
KKE1 160109Z 13008KT 12/00 A3024 RMK A01 T01150001  RH  046%=      5-min Rain = 0
KKE1 160110Z 13007KT 12/00 A3024 RMK A01 T01150001  RH  046%=      5-min Rain = 0
KKE1 160111Z 13006KT 12/00 A3024 RMK A01 T01150001  RH  046%=      5-min Rain = 0
KKE1 160112Z 13007KT 12/00 A3024 RMK A01 T01150002  RH  046%=      5-min Rain = 0
KKE1 160113Z 13007KT 12/00 A3024 RMK A01 T01160001  RH  045%=      5-min Rain = 0
KKE1 160114Z 14007KT 12/00 A3024 RMK A01 T01160002  RH  045%=      5-min Rain = 0
KKE1 160115Z 14007KT 12/00 A3024 RMK A01 T01150001  RH  046%=      5-min Rain = 0
KKE1 160116Z 13007KT 11/00 A3024 RMK A01 T01140001  RH  046%=      5-min Rain = 0
KKE1 160117Z 13007KT 11/00 A3024 RMK A01 T01140002  RH  046%=      5-min Rain = 0
KKE1 160118Z 13007KT 11/00 A3024 RMK A01 T01130001  RH  046%=      5-min Rain = 0
KKE1 160119Z 13006KT 11/00 A3024 RMK A01 T01140002  RH  046%=      5-min Rain = 0
KKE1 160120Z 13007KT 11/00 A3024 RMK A01 T01130002  RH  046%=      5-min Rain = 0
KKE1 160121Z 13007KT 11/00 A3024 RMK A01 T01120001  RH  046%=      5-min Rain = 0
KKE1 160122Z 13006KT 11/00 A3024 RMK A01 T01110001  RH  047%=      5-min Rain = 0
KKE1 160123Z 13005KT 11/00 A3024 RMK A01 T01110002  RH  047%=      5-min Rain = 0
KKE1 160124Z 13005KT 11/00 A3024 RMK A01 T01100002  RH  047%=      5-min Rain = 0
KKE1 160125Z 13005KT 11/00 A3024 RMK A01 T01100002  RH  047%=      5-min Rain = 0
KKE1 160126Z 13004KT 11/00 A3024 RMK A01 T01090002  RH  047%=      5-min Rain = 0
KKE1 160127Z 13004KT 11/00 A3024 RMK A01 T01090002  RH  048%=      5-min Rain = 0
KKE1 160128Z 12005KT 11/00 A3024 RMK A01 T01090002  RH  047%=      5-min Rain = 0
KKE1 160129Z 13005KT 11/00 A3024 RMK A01 T01090002  RH  047%=      5-min Rain = 0
KKE1 160130Z 12005KT 11/00 A3024 RMK A01 T01100002  RH  047%=      5-min Rain = 0
KKE1 160131Z 12005KT 11/00 A3024 RMK A01 T01110002  RH  047%=      5-min Rain = 0
KKE1 160132Z 13005KT 11/00 A3023 RMK A01 T01110002  RH  047%=      5-min Rain = 0
KKE1 160133Z 12004KT 11/00 A3023 RMK A01 T01110002  RH  047%=      5-min Rain = 0
KKE1 160134Z 13004KT 11/00 A3023 RMK A01 T01120002  RH  047%=      5-min Rain = 0
KKE1 160135Z 11003KT 11/00 A3024 RMK A01 T01110002  RH  047%=      5-min Rain = 0
KKE1 160136Z 11003KT 11/00 A3024 RMK A01 T01110002  RH  047%=      5-min Rain = 0
KKE1 160137Z 12004KT 11/00 A3024 RMK A01 T01100002  RH  047%=      5-min Rain = 0
KKE1 160138Z 12004KT 11/00 A3024 RMK A01 T01090002  RH  047%=      5-min Rain = 0
KKE1 160139Z 12005KT 11/00 A3024 RMK A01 T01090001  RH  047%=      5-min Rain = 0
KKE1 160140Z 12005KT 11/00 A3024 RMK A01 T01080001  RH  048%=      5-min Rain = 0
KKE1 160141Z 12005KT 11/00 A3024 RMK A01 T01070002  RH  048%=      5-min Rain = 0
KKE1 160142Z 13005KT 11/00 A3024 RMK A01 T01060001  RH  048%=      5-min Rain = 0
KKE1 160143Z 12005KT 11/00 A3024 RMK A01 T01060001  RH  048%=      5-min Rain = 0
KKE1 160144Z 12005KT 11/00 A3024 RMK A01 T01060001  RH  048%=      5-min Rain = 0
KKE1 160145Z 13005KT 11/00 A3024 RMK A01 T01060001  RH  048%=      5-min Rain = 0
KKE1 160146Z 13005KT 11/00 A3024 RMK A01 T01070002  RH  048%=      5-min Rain = 0
KKE1 160147Z 13006KT 11/00 A3024 RMK A01 T01060001  RH  048%=      5-min Rain = 0
KKE1 160148Z 14006KT 11/00 A3024 RMK A01 T01070001  RH  048%=      5-min Rain = 0
KKE1 160149Z 14006KT 11/00 A3024 RMK A01 T01080002  RH  048%=      5-min Rain = 0
KKE1 160150Z 14005KT 11/00 A3024 RMK A01 T01090002  RH  048%=      5-min Rain = 0
KKE1 160151Z 14005KT 11/00 A3024 RMK A01 T01090002  RH  048%=      5-min Rain = 0
KKE1 160152Z 14005KT 11/00 A3024 RMK A01 T01080001  RH  048%=      5-min Rain = 0
KKE1 160153Z 15004KT 11/00 A3024 RMK A01 T01080002  RH  048%=      5-min Rain = 0
KKE1 160154Z 17003KT 11/00 A3024 RMK A01 T01070001  RH  048%=      5-min Rain = 0
KKE1 160155Z 17002KT 10/00 A3024 RMK A01 T01040001  RH  049%=      5-min Rain = 0
KKE1 160156Z 16003KT 10/00 A3024 RMK A01 T01020000  RH  049%=      5-min Rain = 0
KKE1 160157Z 16004KT 10/00 A3024 RMK A01 T01000000  RH  050%=      5-min Rain = 0
KKE1 160158Z 16003KT 10/00 A3024 RMK A01 T00990001  RH  050%=      5-min Rain = 0
KKE1 160159Z 17002KT 10/00 A3024 RMK A01 T00980001  RH  051%=      5-min Rain = 0
KKE1 160200Z 18002KT 10/00 A3024 RMK A01 T009600-0  RH  051%=      5-min Rain = 0
KKE1 160201Z 18002KT 10/00 A3024 RMK A01 T00950000  RH  052%=      5-min Rain = 0
KKE1 160202Z 17002KT 09/00 A3024 RMK A01 T00940000  RH  052%=      5-min Rain = 0
KKE1 160203Z 18002KT 09/00 A3024 RMK A01 T00940000  RH  052%=      5-min Rain = 0
KKE1 160204Z 18003KT 09/00 A3024 RMK A01 T00940000  RH  052%=      5-min Rain = 0
KKE1 160205Z 17004KT 10/00 A3024 RMK A01 T00950000  RH  052%=      5-min Rain = 0
KKE1 160206Z 18004KT 10/00 A3024 RMK A01 T009600-0  RH  051%=      5-min Rain = 0
KKE1 160207Z 18004KT 10/00 A3024 RMK A01 T009700-0  RH  051%=      5-min Rain = 0
KKE1 160208Z 18004KT 10/00 A3024 RMK A01 T009800-0  RH  050%=      5-min Rain = 0
KKE1 160209Z 17004KT 10/M00 A3024 RMK A01 T00981001  RH  050%=      5-min Rain = 0
KKE1 160210Z 17004KT 10/M00 A3024 RMK A01 T00981001  RH  050%=      5-min Rain = 0
KKE1 160211Z 17004KT 10/M00 A3024 RMK A01 T00971002  RH  050%=      5-min Rain = 0
KKE1 160212Z 17004KT 10/M00 A3024 RMK A01 T00961002  RH  050%=      5-min Rain = 0
KKE1 160213Z 17004KT 10/M00 A3024 RMK A01 T00961003  RH  050%=      5-min Rain = 0
KKE1 160214Z 18004KT 10/M00 A3024 RMK A01 T00951003  RH  050%=      5-min Rain = 0
KKE1 160215Z 19004KT 10/M00 A3024 RMK A01 T00951004  RH  050%=      5-min Rain = 0
KKE1 160216Z 19004KT 09/M01 A3024 RMK A01 T00941007  RH  049%=      5-min Rain = 0
KKE1 160217Z 19004KT 09/M01 A3024 RMK A01 T00931009  RH  049%=      5-min Rain = 0
KKE1 160218Z 20003KT 09/M01 A3024 RMK A01 T00911010  RH  049%=      5-min Rain = 0
KKE1 160219Z 21003KT 09/M01 A3024 RMK A01 T00901011  RH  049%=      5-min Rain = 0
KKE1 160220Z 21003KT 09/M01 A3024 RMK A01 T00891011  RH  050%=      5-min Rain = 0
KKE1 160221Z 21002KT 09/M01 A3024 RMK A01 T00871011  RH  050%=      5-min Rain = 0
KKE1 160222Z 21002KT 09/M01 A3024 RMK A01 T00861012  RH  050%=      5-min Rain = 0
KKE1 160223Z 22002KT 08/M01 A3024 RMK A01 T00841013  RH  050%=      5-min Rain = 0
KKE1 160224Z 23004KT 08/M01 A3024 RMK A01 T00821014  RH  050%=      5-min Rain = 0
KKE1 160225Z 23004KT 08/M02 A3024 RMK A01 T00801017  RH  050%=      5-min Rain = 0
KKE1 160226Z 24005KT 08/M02 A3024 RMK A01 T00781018  RH  051%=      5-min Rain = 0
KKE1 160227Z 24005KT 08/M02 A3024 RMK A01 T00771018  RH  051%=      5-min Rain = 0
KKE1 160228Z 24005KT 08/M02 A3024 RMK A01 T00761019  RH  051%=      5-min Rain = 0
KKE1 160229Z 23004KT 08/M02 A3024 RMK A01 T00751019  RH  051%=      5-min Rain = 0
KKE1 160230Z 22003KT 08/M02 A3024 RMK A01 T00751019  RH  051%=      5-min Rain = 0
KKE1 160231Z 22003KT 08/M02 A3024 RMK A01 T00751019  RH  051%=      5-min Rain = 0
KKE1 160232Z 22004KT 08/M02 A3024 RMK A01 T00751018  RH  051%=      5-min Rain = 0
KKE1 160233Z 23004KT 08/M02 A3024 RMK A01 T00761018  RH  051%=      5-min Rain = 0
KKE1 160234Z 22004KT 08/M02 A3024 RMK A01 T00761019  RH  051%=      5-min Rain = 0
KKE1 160235Z 22003KT 08/M02 A3024 RMK A01 T00761020  RH  051%=      5-min Rain = 0
KKE1 160236Z 22004KT 08/M02 A3024 RMK A01 T00771020  RH  050%=      5-min Rain = 0
KKE1 160237Z 22004KT 08/M02 A3024 RMK A01 T00771020  RH  050%=      5-min Rain = 0
KKE1 160238Z 23004KT 08/M02 A3024 RMK A01 T00771020  RH  050%=      5-min Rain = 0
KKE1 160239Z 23004KT 08/M02 A3024 RMK A01 T00771020  RH  050%=      5-min Rain = 0
KKE1 160240Z 22004KT 08/M02 A3024 RMK A01 T00761020  RH  051%=      5-min Rain = 0
KKE1 160241Z 22003KT 08/M02 A3024 RMK A01 T00751020  RH  051%=      5-min Rain = 0
KKE1 160242Z 22004KT 08/M02 A3024 RMK A01 T00751021  RH  051%=      5-min Rain = 0
KKE1 160243Z 22003KT 08/M02 A3024 RMK A01 T00751021  RH  051%=      5-min Rain = 0
KKE1 160244Z 22004KT 08/M02 A3024 RMK A01 T00751021  RH  050%=      5-min Rain = 0
KKE1 160245Z 22004KT 08/M02 A3024 RMK A01 T00751021  RH  050%=      5-min Rain = 0
KKE1 160246Z 20003KT 08/M02 A3024 RMK A01 T00751021  RH  051%=      5-min Rain = 0
KKE1 160247Z 20003KT 07/M02 A3024 RMK A01 T00741020  RH  051%=      5-min Rain = 0
KKE1 160248Z 20003KT 07/M02 A3024 RMK A01 T00731020  RH  052%=      5-min Rain = 0
KKE1 160249Z 19003KT 07/M02 A3024 RMK A01 T00711020  RH  052%=      5-min Rain = 0
KKE1 160250Z 19002KT 07/M02 A3024 RMK A01 T00711020  RH  052%=      5-min Rain = 0
KKE1 160251Z 19002KT 07/M02 A3024 RMK A01 T00711019  RH  053%=      5-min Rain = 0
KKE1 160252Z 19001KT 07/M02 A3024 RMK A01 T00701019  RH  053%=      5-min Rain = 0
KKE1 160253Z 20001KT 07/M02 A3024 RMK A01 T00681019  RH  054%=      5-min Rain = 0
KKE1 160254Z 20001KT 07/M02 A3023 RMK A01 T00681019  RH  054%=      5-min Rain = 0
KKE1 160255Z 20001KT 07/M02 A3023 RMK A01 T00681020  RH  054%=      5-min Rain = 0
KKE1 160256Z 20001KT 07/M02 A3023 RMK A01 T00691019  RH  053%=      5-min Rain = 0
KKE1 160257Z 22001KT 07/M02 A3023 RMK A01 T00691020  RH  053%=      5-min Rain = 0
KKE1 160258Z 24001KT 07/M02 A3023 RMK A01 T00681021  RH  053%=      5-min Rain = 0
KKE1 160259Z 23000KT 07/M02 A3023 RMK A01 T00691021  RH  053%=      5-min Rain = 0
KKE1 160300Z 20001KT 07/M02 A3023 RMK A01 T00691021  RH  053%=      5-min Rain = 0
KKE1 160301Z 22002KT 07/M02 A3023 RMK A01 T00691020  RH  053%=      5-min Rain = 0
KKE1 160302Z 22001KT 07/M02 A3023 RMK A01 T00681021  RH  053%=      5-min Rain = 0
KKE1 160303Z 20001KT 07/M02 A3023 RMK A01 T00681021  RH  053%=      5-min Rain = 0
KKE1 160304Z 20002KT 07/M02 A3023 RMK A01 T00681021  RH  053%=      5-min Rain = 0
KKE1 160305Z 21001KT 07/M02 A3023 RMK A01 T00681021  RH  053%=      5-min Rain = 0
KKE1 160306Z 21002KT 07/M02 A3023 RMK A01 T00681021  RH  053%=      5-min Rain = 0
KKE1 160307Z 22003KT 07/M02 A3023 RMK A01 T00671020  RH  054%=      5-min Rain = 0
KKE1 160308Z 21003KT 07/M02 A3023 RMK A01 T00681021  RH  053%=      5-min Rain = 0
KKE1 160309Z 21003KT 07/M02 A3023 RMK A01 T00691022  RH  052%=      5-min Rain = 0
KKE1 160310Z 20003KT 07/M02 A3023 RMK A01 T00691021  RH  053%=      5-min Rain = 0
KKE1 160311Z 20002KT 07/M02 A3023 RMK A01 T00671020  RH  054%=      5-min Rain = 0
KKE1 160312Z 20001KT 07/M02 A3023 RMK A01 T00661020  RH  054%=      5-min Rain = 0
KKE1 160313Z 19002KT 07/M02 A3023 RMK A01 T00651021  RH  054%=      5-min Rain = 0
KKE1 160314Z 19002KT 06/M02 A3023 RMK A01 T00641020  RH  055%=      5-min Rain = 0
KKE1 160315Z 20003KT 06/M02 A3023 RMK A01 T00631021  RH  055%=      5-min Rain = 0
KKE1 160316Z 21002KT 06/M02 A3023 RMK A01 T00621021  RH  055%=      5-min Rain = 0
KKE1 160317Z 21002KT 06/M02 A3023 RMK A01 T00611021  RH  055%=      5-min Rain = 0
KKE1 160318Z 21003KT 06/M02 A3023 RMK A01 T00611021  RH  056%=      5-min Rain = 0
KKE1 160319Z 21003KT 06/M02 A3023 RMK A01 T00611020  RH  056%=      5-min Rain = 0
KKE1 160320Z 21003KT 06/M02 A3023 RMK A01 T00601022  RH  056%=      5-min Rain = 0
KKE1 160321Z 21004KT 06/M02 A3023 RMK A01 T00591022  RH  056%=      5-min Rain = 0
KKE1 160322Z 21005KT 06/M02 A3023 RMK A01 T00591023  RH  056%=      5-min Rain = 0
KKE1 160323Z 21005KT 06/M02 A3023 RMK A01 T00601023  RH  055%=      5-min Rain = 0
KKE1 160324Z 21004KT 06/M02 A3023 RMK A01 T00601023  RH  055%=      5-min Rain = 0
KKE1 160325Z 21005KT 06/M02 A3022 RMK A01 T00611022  RH  055%=      5-min Rain = 0
KKE1 160326Z 21005KT 06/M02 A3022 RMK A01 T00611022  RH  055%=      5-min Rain = 0
KKE1 160327Z 21005KT 06/M02 A3022 RMK A01 T00611022  RH  055%=      5-min Rain = 0
KKE1 160328Z 21005KT 06/M02 A3022 RMK A01 T00601022  RH  055%=      5-min Rain = 0
KKE1 160329Z 21005KT 06/M02 A3022 RMK A01 T00601022  RH  055%=      5-min Rain = 0
KKE1 160330Z 21004KT 06/M02 A3022 RMK A01 T00611023  RH  055%=      5-min Rain = 0
KKE1 160331Z 22004KT 06/M02 A3022 RMK A01 T00611023  RH  055%=      5-min Rain = 0
KKE1 160332Z 21003KT 06/M02 A3022 RMK A01 T00611023  RH  055%=      5-min Rain = 0
KKE1 160333Z 22003KT 06/M02 A3022 RMK A01 T00611022  RH  055%=      5-min Rain = 0
KKE1 160334Z 22003KT 06/M02 A3022 RMK A01 T00601023  RH  055%=      5-min Rain = 0
KKE1 160335Z 22003KT 06/M02 A3022 RMK A01 T00591022  RH  056%=      5-min Rain = 0
KKE1 160336Z 21003KT 06/M02 A3022 RMK A01 T00591023  RH  056%=      5-min Rain = 0
KKE1 160337Z 21004KT 06/M02 A3022 RMK A01 T00581023  RH  056%=      5-min Rain = 0
KKE1 160338Z 21003KT 06/M02 A3022 RMK A01 T00581023  RH  056%=      5-min Rain = 0
KKE1 160339Z 21003KT 06/M02 A3022 RMK A01 T00581022  RH  056%=      5-min Rain = 0
KKE1 160340Z 19002KT 06/M02 A3022 RMK A01 T00581022  RH  056%=      5-min Rain = 0
KKE1 160341Z 19002KT 06/M02 A3022 RMK A01 T00581022  RH  057%=      5-min Rain = 0
KKE1 160342Z 19002KT 06/M02 A3022 RMK A01 T00571022  RH  057%=      5-min Rain = 0
KKE1 160343Z 19002KT 06/M02 A3022 RMK A01 T00561022  RH  057%=      5-min Rain = 0
KKE1 160344Z 18001KT 06/M02 A3022 RMK A01 T00551022  RH  058%=      5-min Rain = 0
KKE1 160345Z 17000KT 06/M02 A3022 RMK A01 T00551022  RH  058%=      5-min Rain = 0
KKE1 160346Z 16000KT 06/M02 A3022 RMK A01 T00561022  RH  057%=      5-min Rain = 0
KKE1 160347Z 16000KT 06/M02 A3022 RMK A01 T00561022  RH  057%=      5-min Rain = 0
KKE1 160348Z 00000KT 06/M02 A3022 RMK A01 T00561022  RH  057%=      5-min Rain = 0
KKE1 160349Z 00000KT 06/M02 A3022 RMK A01 T00561022  RH  057%=      5-min Rain = 0
KKE1 160350Z 00000KT 06/M02 A3022 RMK A01 T00561022  RH  057%=      5-min Rain = 0
KKE1 160351Z 00000KT 06/M02 A3022 RMK A01 T00561022  RH  057%=      5-min Rain = 0
KKE1 160352Z 00000KT 06/M02 A3022 RMK A01 T00551021  RH  058%=      5-min Rain = 0
KKE1 160353Z 00000KT 06/M02 A3022 RMK A01 T00551022  RH  058%=      5-min Rain = 0
KKE1 160354Z 21000KT 06/M02 A3022 RMK A01 T00551023  RH  057%=      5-min Rain = 0
KKE1 160355Z 22001KT 06/M02 A3022 RMK A01 T00561022  RH  057%=      5-min Rain = 0
KKE1 160356Z 22002KT 06/M02 A3022 RMK A01 T00571022  RH  057%=      5-min Rain = 0
KKE1 160357Z 22002KT 06/M02 A3022 RMK A01 T00571022  RH  056%=      5-min Rain = 0
KKE1 160358Z 22002KT 06/M02 A3022 RMK A01 T00581022  RH  056%=      5-min Rain = 0
KKE1 160359Z 21002KT 06/M02 A3022 RMK A01 T00581022  RH  056%=      5-min Rain = 0
KKE1 160400Z 20002KT 06/M02 A3022 RMK A01 T00581022  RH  056%=      5-min Rain = 0
KKE1 160401Z 21002KT 06/M02 A3022 RMK A01 T00581022  RH  056%=      5-min Rain = 0
KKE1 160402Z 22002KT 06/M02 A3022 RMK A01 T00581022  RH  056%=      5-min Rain = 0
KKE1 160403Z 22003KT 06/M02 A3022 RMK A01 T00571023  RH  057%=      5-min Rain = 0
KKE1 160404Z 22003KT 06/M02 A3022 RMK A01 T00571023  RH  056%=      5-min Rain = 0
KKE1 160405Z 22002KT 06/M02 A3022 RMK A01 T00581023  RH  056%=      5-min Rain = 0
KKE1 160406Z 22002KT 06/M02 A3022 RMK A01 T00581023  RH  056%=      5-min Rain = 0
KKE1 160407Z 23002KT 06/M02 A3022 RMK A01 T00581023  RH  056%=      5-min Rain = 0
KKE1 160408Z 23002KT 06/M02 A3022 RMK A01 T00581023  RH  056%=      5-min Rain = 0
KKE1 160409Z 23003KT 06/M02 A3022 RMK A01 T00581023  RH  056%=      5-min Rain = 0
KKE1 160410Z 22002KT 06/M02 A3022 RMK A01 T00581023  RH  056%=      5-min Rain = 0
KKE1 160411Z 22003KT 06/M02 A3022 RMK A01 T00571023  RH  056%=      5-min Rain = 0
KKE1 160412Z 22003KT 06/M02 A3022 RMK A01 T00571023  RH  056%=      5-min Rain = 0
KKE1 160413Z 22003KT 06/M02 A3022 RMK A01 T00561023  RH  057%=      5-min Rain = 0
KKE1 160414Z 23003KT 06/M02 A3022 RMK A01 T00571023  RH  056%=      5-min Rain = 0
KKE1 160415Z 23004KT 06/M02 A3022 RMK A01 T00571023  RH  056%=      5-min Rain = 0
KKE1 160416Z 23004KT 06/M02 A3022 RMK A01 T00571023  RH  056%=      5-min Rain = 0
KKE1 160417Z 23003KT 06/M02 A3022 RMK A01 T00581023  RH  056%=      5-min Rain = 0
KKE1 160418Z 23002KT 06/M02 A3022 RMK A01 T00591023  RH  056%=      5-min Rain = 0
KKE1 160419Z 21003KT 06/M02 A3022 RMK A01 T00601022  RH  056%=      5-min Rain = 0
KKE1 160420Z 21004KT 06/M02 A3022 RMK A01 T00591023  RH  056%=      5-min Rain = 0
KKE1 160421Z 21004KT 06/M02 A3022 RMK A01 T00591023  RH  056%=      5-min Rain = 0
KKE1 160422Z 20004KT 06/M02 A3021 RMK A01 T00581023  RH  056%=      5-min Rain = 0
KKE1 160423Z 21004KT 06/M02 A3021 RMK A01 T00571023  RH  056%=      5-min Rain = 0
KKE1 160424Z 21004KT 06/M02 A3021 RMK A01 T00561023  RH  057%=      5-min Rain = 0
KKE1 160425Z 22003KT 06/M02 A3021 RMK A01 T00561023  RH  057%=      5-min Rain = 0
KKE1 160426Z 22003KT 06/M02 A3021 RMK A01 T00561023  RH  057%=      5-min Rain = 0
KKE1 160427Z 22003KT 06/M02 A3021 RMK A01 T00551023  RH  057%=      5-min Rain = 0
KKE1 160428Z 22002KT 06/M02 A3021 RMK A01 T00551023  RH  057%=      5-min Rain = 0
KKE1 160429Z 22002KT 06/M02 A3021 RMK A01 T00551023  RH  057%=      5-min Rain = 0
KKE1 160430Z 21001KT 06/M02 A3021 RMK A01 T00561022  RH  057%=      5-min Rain = 0
KKE1 160431Z 20002KT 06/M02 A3021 RMK A01 T00551022  RH  057%=      5-min Rain = 0
KKE1 160432Z 21002KT 06/M02 A3021 RMK A01 T00551023  RH  057%=      5-min Rain = 0
KKE1 160433Z 20002KT 05/M02 A3021 RMK A01 T00541023  RH  058%=      5-min Rain = 0
KKE1 160434Z 19001KT 05/M02 A3021 RMK A01 T00521024  RH  058%=      5-min Rain = 0
KKE1 160435Z 19000KT 05/M02 A3021 RMK A01 T00511024  RH  058%=      5-min Rain = 0
KKE1 160436Z 00000KT 05/M02 A3021 RMK A01 T00501024  RH  059%=      5-min Rain = 0
KKE1 160437Z 24001KT 05/M02 A3021 RMK A01 T00501024  RH  059%=      5-min Rain = 0
KKE1 160438Z 24001KT 05/M02 A3021 RMK A01 T00501023  RH  059%=      5-min Rain = 0
KKE1 160439Z 24000KT 05/M02 A3021 RMK A01 T00501023  RH  059%=      5-min Rain = 0
KKE1 160440Z 00000KT 05/M02 A3021 RMK A01 T00511023  RH  059%=      5-min Rain = 0
KKE1 160441Z 00000KT 05/M02 A3021 RMK A01 T00531023  RH  058%=      5-min Rain = 0
KKE1 160442Z 00000KT 05/M02 A3021 RMK A01 T00541023  RH  058%=      5-min Rain = 0
KKE1 160443Z 00000KT 05/M02 A3021 RMK A01 T00541023  RH  058%=      5-min Rain = 0
KKE1 160444Z 00000KT 06/M02 A3021 RMK A01 T00551023  RH  057%=      5-min Rain = 0
KKE1 160445Z 24001KT 06/M02 A3021 RMK A01 T00551022  RH  057%=      5-min Rain = 0
KKE1 160446Z 24000KT 06/M02 A3021 RMK A01 T00571022  RH  057%=      5-min Rain = 0
KKE1 160447Z 00000KT 06/M02 A3021 RMK A01 T00581022  RH  056%=      5-min Rain = 0
KKE1 160448Z 00000KT 06/M02 A3021 RMK A01 T00581022  RH  056%=      5-min Rain = 0
KKE1 160449Z 00000KT 06/M02 A3021 RMK A01 T00581022  RH  056%=      5-min Rain = 0
KKE1 160450Z 00000KT 06/M02 A3021 RMK A01 T00571022  RH  057%=      5-min Rain = 0
KKE1 160451Z 00000KT 06/M02 A3021 RMK A01 T00571022  RH  057%=      5-min Rain = 0
KKE1 160452Z 00000KT 06/M02 A3021 RMK A01 T00571022  RH  057%=      5-min Rain = 0
KKE1 160453Z 00000KT 06/M02 A3021 RMK A01 T00571022  RH  057%=      5-min Rain = 0
KKE1 160454Z 00000KT 06/M02 A3021 RMK A01 T00571022  RH  057%=      5-min Rain = 0
KKE1 160455Z 00000KT 06/M02 A3021 RMK A01 T00571022  RH  057%=      5-min Rain = 0
KKE1 160456Z 00000KT 06/M02 A3021 RMK A01 T00561022  RH  057%=      5-min Rain = 0
KKE1 160457Z 00000KT 06/M02 A3021 RMK A01 T00561023  RH  057%=      5-min Rain = 0
KKE1 160458Z 00000KT 06/M02 A3021 RMK A01 T00561022  RH  057%=      5-min Rain = 0
KKE1 160459Z 24000KT 06/M02 A3021 RMK A01 T00571021  RH  057%=      5-min Rain = 0
KKE1 160500Z 24001KT 06/M02 A3021 RMK A01 T00581021  RH  057%=      5-min Rain = 0
KKE1 160501Z 24002KT 06/M02 A3021 RMK A01 T00581022  RH  056%=      5-min Rain = 0
KKE1 160502Z 22002KT 06/M02 A3021 RMK A01 T00591021  RH  056%=      5-min Rain = 0
KKE1 160503Z 23002KT 06/M02 A3021 RMK A01 T00591021  RH  057%=      5-min Rain = 0
KKE1 160504Z 23002KT 06/M02 A3021 RMK A01 T00581021  RH  057%=      5-min Rain = 0
KKE1 160505Z 23002KT 06/M02 A3021 RMK A01 T00571021  RH  058%=      5-min Rain = 0
KKE1 160506Z 23002KT 06/M02 A3021 RMK A01 T00561020  RH  058%=      5-min Rain = 0
KKE1 160507Z 22003KT 06/M02 A3021 RMK A01 T00561020  RH  058%=      5-min Rain = 0
KKE1 160508Z 21004KT 06/M02 A3021 RMK A01 T00571020  RH  058%=      5-min Rain = 0
KKE1 160509Z 22004KT 06/M02 A3021 RMK A01 T00561020  RH  058%=      5-min Rain = 0
KKE1 160510Z 23004KT 05/M02 A3021 RMK A01 T00541021  RH  059%=      5-min Rain = 0
KKE1 160511Z 23004KT 05/M02 A3021 RMK A01 T00531020  RH  059%=      5-min Rain = 0
KKE1 160512Z 22005KT 05/M02 A3021 RMK A01 T00531020  RH  059%=      5-min Rain = 0
KKE1 160513Z 22005KT 05/M02 A3021 RMK A01 T00531020  RH  059%=      5-min Rain = 0
KKE1 160514Z 23004KT 05/M02 A3021 RMK A01 T00511021  RH  060%=      5-min Rain = 0
KKE1 160515Z 24004KT 05/M02 A3021 RMK A01 T00511020  RH  060%=      5-min Rain = 0
KKE1 160516Z 25003KT 05/M02 A3021 RMK A01 T00501020  RH  060%=      5-min Rain = 0
KKE1 160517Z 25003KT 05/M02 A3021 RMK A01 T00491021  RH  061%=      5-min Rain = 0
KKE1 160518Z 26003KT 05/M02 A3021 RMK A01 T00471021  RH  061%=      5-min Rain = 0
KKE1 160519Z 25003KT 05/M02 A3021 RMK A01 T00471021  RH  061%=      5-min Rain = 0
KKE1 160520Z 24003KT 05/M02 A3021 RMK A01 T00471021  RH  061%=      5-min Rain = 0
KKE1 160521Z 24003KT 05/M02 A3021 RMK A01 T00481020  RH  061%=      5-min Rain = 0
KKE1 160522Z 23003KT 05/M02 A3021 RMK A01 T00481020  RH  061%=      5-min Rain = 0
KKE1 160523Z 24003KT 05/M02 A3021 RMK A01 T00481020  RH  061%=      5-min Rain = 0
KKE1 160524Z 25003KT 05/M02 A3021 RMK A01 T00481020  RH  061%=      5-min Rain = 0
KKE1 160525Z 24002KT 05/M02 A3021 RMK A01 T00491019  RH  061%=      5-min Rain = 0
KKE1 160526Z 24003KT 05/M02 A3021 RMK A01 T00501019  RH  061%=      5-min Rain = 0
KKE1 160527Z 23003KT 05/M02 A3021 RMK A01 T00521019  RH  060%=      5-min Rain = 0
KKE1 160528Z 21004KT 06/M02 A3021 RMK A01 T00551018  RH  059%=      5-min Rain = 0
KKE1 160529Z 22005KT 06/M02 A3021 RMK A01 T00551018  RH  059%=      5-min Rain = 0
KKE1 160530Z 22005KT 05/M02 A302 RMK A01 T00541019  RH  059%=      5-min Rain = 0
KKE1 160531Z 22005KT 05/M02 A302 RMK A01 T00531019  RH  060%=      5-min Rain = 0
KKE1 160532Z 22005KT 05/M02 A302 RMK A01 T00521019  RH  060%=      5-min Rain = 0
KKE1 160533Z 21005KT 05/M02 A302 RMK A01 T00541018  RH  060%=      5-min Rain = 0
KKE1 160534Z 21005KT 06/M02 A302 RMK A01 T00551018  RH  060%=      5-min Rain = 0
KKE1 160535Z 21005KT 06/M02 A302 RMK A01 T00551018  RH  059%=      5-min Rain = 0
KKE1 160536Z 20004KT 05/M02 A302 RMK A01 T00541019  RH  060%=      5-min Rain = 0
KKE1 160537Z 20004KT 05/M02 A302 RMK A01 T00531019  RH  060%=      5-min Rain = 0
KKE1 160538Z 22003KT 05/M02 A302 RMK A01 T00531019  RH  060%=      5-min Rain = 0
KKE1 160539Z 23002KT 05/M02 A302 RMK A01 T00521019  RH  060%=      5-min Rain = 0
KKE1 160540Z 23002KT 05/M02 A302 RMK A01 T00521019  RH  060%=      5-min Rain = 0
KKE1 160541Z 21003KT 05/M02 A302 RMK A01 T00511019  RH  060%=      5-min Rain = 0
KKE1 160542Z 21003KT 05/M02 A302 RMK A01 T00511020  RH  060%=      5-min Rain = 0
KKE1 160543Z 22004KT 05/M02 A302 RMK A01 T00511020  RH  060%=      5-min Rain = 0
KKE1 160544Z 23003KT 05/M02 A302 RMK A01 T00511020  RH  060%=      5-min Rain = 0
KKE1 160545Z 22003KT 05/M02 A302 RMK A01 T00501020  RH  060%=      5-min Rain = 0
KKE1 160546Z 22003KT 05/M02 A302 RMK A01 T00481021  RH  061%=      5-min Rain = 0
KKE1 160547Z 23002KT 05/M02 A302 RMK A01 T00471022  RH  061%=      5-min Rain = 0
KKE1 160548Z 21002KT 05/M02 A302 RMK A01 T00461022  RH  061%=      5-min Rain = 0
KKE1 160549Z 19003KT 05/M02 A302 RMK A01 T00461021  RH  062%=      5-min Rain = 0
KKE1 160550Z 19003KT 05/M02 A302 RMK A01 T00451021  RH  062%=      5-min Rain = 0
KKE1 160551Z 19003KT 05/M02 A302 RMK A01 T00461021  RH  062%=      5-min Rain = 0
KKE1 160552Z 18002KT 05/M02 A302 RMK A01 T00461021  RH  062%=      5-min Rain = 0
KKE1 160553Z 18002KT 05/M02 A3019 RMK A01 T00461021  RH  062%=      5-min Rain = 0
KKE1 160554Z 18002KT 05/M02 A3019 RMK A01 T00471021  RH  062%=      5-min Rain = 0
KKE1 160555Z 19002KT 05/M02 A3019 RMK A01 T00471021  RH  061%=      5-min Rain = 0
KKE1 160556Z 20002KT 05/M02 A3019 RMK A01 T00481021  RH  061%=      5-min Rain = 0
KKE1 160557Z 20003KT 05/M02 A3019 RMK A01 T00481021  RH  061%=      5-min Rain = 0
KKE1 160558Z 19003KT 05/M02 A3019 RMK A01 T00481021  RH  061%=      5-min Rain = 0
KKE1 160559Z 20004KT 05/M02 A3019 RMK A01 T00481021  RH  061%=      5-min Rain = 0

Page generated in 0.1408 seconds.